<?xml version="1.0" encoding="UTF-8" standalone="no" ?>
<gpx xmlns="http://www.topografix.com/GPX/1/1" xmlns:xsi="http://www.w3.org/2001/XMLSchema-instance" xsi:schemaLocation="http://www.topografix.com/GPX/1/1 http://www.topografix.com/GPX/1/1/gpx.xsd" version="1.1" creator="VisuGPX - https://www.visugpx.com">
  <metadata>
    <name>Boucles dans la Vallée d'Aston-Cabanes des Ludines.</name>
    <desc><![CDATA[Montée par la Vallée de Calvières jusqu'à la cabane des Ludines, pousuivre au Prat Maü sous le pic de Massayre en passant par la cabane de Pourcel. 
Le début de la rando s'effectue dans une belle hêtraie, le GR10, monte un peu raide. Dès la sortie de la forêt quitter l%u2019ancien GR10, le sentier a tendance à se perdre à cause des nombreuses traces de bétail. On retrouve le GR10 sur le plateau de Sirmont. 
Randonnée dans une belle vallée sauvage. Orientation sans difficulté avec un GPS malgré l'absence de balisage dès que l'on quitte le GR10. 
]]></desc>
  </metadata>
  <trk>
    <name><![CDATA[11-SEP-16 16:23:04]]></name>
    <trkseg>
      <trkpt lat="42.71192" lon="1.66082">
        <ele>1104.21</ele>
        <time>2016-09-11T07:58:31Z</time>
      </trkpt>
      <trkpt lat="42.71201" lon="1.66075">
        <ele>1106.61</ele>
        <time>2016-09-11T07:58:46Z</time>
      </trkpt>
      <trkpt lat="42.71208" lon="1.66064">
        <ele>1109.5</ele>
        <time>2016-09-11T07:59:17Z</time>
      </trkpt>
      <trkpt lat="42.71221" lon="1.66032">
        <ele>1112.38</ele>
        <time>2016-09-11T07:59:46Z</time>
      </trkpt>
      <trkpt lat="42.7123" lon="1.6603">
        <ele>1113.34</ele>
        <time>2016-09-11T08:00:18Z</time>
      </trkpt>
      <trkpt lat="42.71219" lon="1.66019">
        <ele>1118.15</ele>
        <time>2016-09-11T08:00:46Z</time>
      </trkpt>
      <trkpt lat="42.71197" lon="1.66018">
        <ele>1122.96</ele>
        <time>2016-09-11T08:01:15Z</time>
      </trkpt>
      <trkpt lat="42.71183" lon="1.66016">
        <ele>1127.76</ele>
        <time>2016-09-11T08:01:39Z</time>
      </trkpt>
      <trkpt lat="42.71191" lon="1.66017">
        <ele>1131.61</ele>
        <time>2016-09-11T08:02:07Z</time>
      </trkpt>
      <trkpt lat="42.71196" lon="1.66019">
        <ele>1134.01</ele>
        <time>2016-09-11T08:02:44Z</time>
      </trkpt>
      <trkpt lat="42.71195" lon="1.66005">
        <ele>1138.82</ele>
        <time>2016-09-11T08:03:13Z</time>
      </trkpt>
      <trkpt lat="42.71195" lon="1.65988">
        <ele>1143.14</ele>
        <time>2016-09-11T08:03:44Z</time>
      </trkpt>
      <trkpt lat="42.712" lon="1.6598">
        <ele>1146.51</ele>
        <time>2016-09-11T08:04:15Z</time>
      </trkpt>
      <trkpt lat="42.71204" lon="1.65976">
        <ele>1149.87</ele>
        <time>2016-09-11T08:04:42Z</time>
      </trkpt>
      <trkpt lat="42.71189" lon="1.65973">
        <ele>1154.2</ele>
        <time>2016-09-11T08:05:17Z</time>
      </trkpt>
      <trkpt lat="42.71173" lon="1.65968">
        <ele>1157.08</ele>
        <time>2016-09-11T08:05:46Z</time>
      </trkpt>
      <trkpt lat="42.71167" lon="1.65964">
        <ele>1159.49</ele>
        <time>2016-09-11T08:06:22Z</time>
      </trkpt>
      <trkpt lat="42.71152" lon="1.65962">
        <ele>1163.33</ele>
        <time>2016-09-11T08:06:50Z</time>
      </trkpt>
      <trkpt lat="42.71158" lon="1.65952">
        <ele>1166.7</ele>
        <time>2016-09-11T08:07:26Z</time>
      </trkpt>
      <trkpt lat="42.71149" lon="1.65947">
        <ele>1170.54</ele>
        <time>2016-09-11T08:07:56Z</time>
      </trkpt>
      <trkpt lat="42.71136" lon="1.65948">
        <ele>1170.54</ele>
        <time>2016-09-11T08:08:15Z</time>
      </trkpt>
      <trkpt lat="42.71149" lon="1.65953">
        <ele>1172.95</ele>
        <time>2016-09-11T08:08:31Z</time>
      </trkpt>
      <trkpt lat="42.71137" lon="1.65947">
        <ele>1175.35</ele>
        <time>2016-09-11T08:08:45Z</time>
      </trkpt>
      <trkpt lat="42.71135" lon="1.65941">
        <ele>1180.16</ele>
        <time>2016-09-11T08:09:14Z</time>
      </trkpt>
      <trkpt lat="42.71121" lon="1.65933">
        <ele>1183.52</ele>
        <time>2016-09-11T08:09:43Z</time>
      </trkpt>
      <trkpt lat="42.7113" lon="1.65919">
        <ele>1183.52</ele>
        <time>2016-09-11T08:10:07Z</time>
      </trkpt>
      <trkpt lat="42.7113" lon="1.65929">
        <ele>1184.48</ele>
        <time>2016-09-11T08:10:25Z</time>
      </trkpt>
      <trkpt lat="42.71116" lon="1.65925">
        <ele>1188.81</ele>
        <time>2016-09-11T08:10:57Z</time>
      </trkpt>
      <trkpt lat="42.71104" lon="1.65917">
        <ele>1192.65</ele>
        <time>2016-09-11T08:11:27Z</time>
      </trkpt>
      <trkpt lat="42.71102" lon="1.65916">
        <ele>1196.98</ele>
        <time>2016-09-11T08:11:59Z</time>
      </trkpt>
      <trkpt lat="42.71098" lon="1.65915">
        <ele>1201.3</ele>
        <time>2016-09-11T08:12:41Z</time>
      </trkpt>
      <trkpt lat="42.711" lon="1.65915">
        <ele>1203.23</ele>
        <time>2016-09-11T08:13:27Z</time>
      </trkpt>
      <trkpt lat="42.71099" lon="1.65902">
        <ele>1208.51</ele>
        <time>2016-09-11T08:13:52Z</time>
      </trkpt>
      <trkpt lat="42.71091" lon="1.65896">
        <ele>1212.84</ele>
        <time>2016-09-11T08:14:25Z</time>
      </trkpt>
      <trkpt lat="42.71088" lon="1.65895">
        <ele>1217.65</ele>
        <time>2016-09-11T08:14:56Z</time>
      </trkpt>
      <trkpt lat="42.71092" lon="1.65903">
        <ele>1219.57</ele>
        <time>2016-09-11T08:15:43Z</time>
      </trkpt>
      <trkpt lat="42.71101" lon="1.65898">
        <ele>1222.45</ele>
        <time>2016-09-11T08:16:23Z</time>
      </trkpt>
      <trkpt lat="42.71106" lon="1.6589">
        <ele>1225.34</ele>
        <time>2016-09-11T08:17:36Z</time>
      </trkpt>
      <trkpt lat="42.71092" lon="1.65883">
        <ele>1228.22</ele>
        <time>2016-09-11T08:18:14Z</time>
      </trkpt>
      <trkpt lat="42.71087" lon="1.65874">
        <ele>1233.99</ele>
        <time>2016-09-11T08:18:40Z</time>
      </trkpt>
      <trkpt lat="42.71089" lon="1.65875">
        <ele>1238.8</ele>
        <time>2016-09-11T08:19:12Z</time>
      </trkpt>
      <trkpt lat="42.71083" lon="1.65856">
        <ele>1244.08</ele>
        <time>2016-09-11T08:19:41Z</time>
      </trkpt>
      <trkpt lat="42.71084" lon="1.65858">
        <ele>1247.93</ele>
        <time>2016-09-11T08:19:55Z</time>
      </trkpt>
      <trkpt lat="42.71074" lon="1.65845">
        <ele>1251.29</ele>
        <time>2016-09-11T08:20:23Z</time>
      </trkpt>
      <trkpt lat="42.71075" lon="1.65836">
        <ele>1256.1</ele>
        <time>2016-09-11T08:20:54Z</time>
      </trkpt>
      <trkpt lat="42.71078" lon="1.65837">
        <ele>1260.43</ele>
        <time>2016-09-11T08:21:19Z</time>
      </trkpt>
      <trkpt lat="42.71088" lon="1.65839">
        <ele>1265.23</ele>
        <time>2016-09-11T08:21:46Z</time>
      </trkpt>
      <trkpt lat="42.71092" lon="1.6582">
        <ele>1268.6</ele>
        <time>2016-09-11T08:22:08Z</time>
      </trkpt>
      <trkpt lat="42.71092" lon="1.65793">
        <ele>1271.96</ele>
        <time>2016-09-11T08:22:33Z</time>
      </trkpt>
      <trkpt lat="42.71088" lon="1.65756">
        <ele>1275.81</ele>
        <time>2016-09-11T08:23:15Z</time>
      </trkpt>
      <trkpt lat="42.71082" lon="1.65738">
        <ele>1280.13</ele>
        <time>2016-09-11T08:23:42Z</time>
      </trkpt>
      <trkpt lat="42.71087" lon="1.65725">
        <ele>1283.5</ele>
        <time>2016-09-11T08:24:07Z</time>
      </trkpt>
      <trkpt lat="42.71091" lon="1.65706">
        <ele>1286.86</ele>
        <time>2016-09-11T08:24:35Z</time>
      </trkpt>
      <trkpt lat="42.7109" lon="1.65683">
        <ele>1289.75</ele>
        <time>2016-09-11T08:25:07Z</time>
      </trkpt>
      <trkpt lat="42.71089" lon="1.65658">
        <ele>1294.55</ele>
        <time>2016-09-11T08:25:49Z</time>
      </trkpt>
      <trkpt lat="42.71084" lon="1.65641">
        <ele>1298.4</ele>
        <time>2016-09-11T08:26:20Z</time>
      </trkpt>
      <trkpt lat="42.71089" lon="1.65643">
        <ele>1301.76</ele>
        <time>2016-09-11T08:26:47Z</time>
      </trkpt>
      <trkpt lat="42.71081" lon="1.65633">
        <ele>1301.76</ele>
        <time>2016-09-11T08:27:10Z</time>
      </trkpt>
      <trkpt lat="42.71084" lon="1.65644">
        <ele>1302.24</ele>
        <time>2016-09-11T08:27:30Z</time>
      </trkpt>
      <trkpt lat="42.71097" lon="1.65634">
        <ele>1304.17</ele>
        <time>2016-09-11T08:27:52Z</time>
      </trkpt>
      <trkpt lat="42.71108" lon="1.65623">
        <ele>1307.53</ele>
        <time>2016-09-11T08:28:17Z</time>
      </trkpt>
      <trkpt lat="42.71112" lon="1.6561">
        <ele>1311.86</ele>
        <time>2016-09-11T08:28:46Z</time>
      </trkpt>
      <trkpt lat="42.71106" lon="1.65596">
        <ele>1316.18</ele>
        <time>2016-09-11T08:29:15Z</time>
      </trkpt>
      <trkpt lat="42.71093" lon="1.65594">
        <ele>1321.47</ele>
        <time>2016-09-11T08:29:44Z</time>
      </trkpt>
      <trkpt lat="42.71093" lon="1.65589">
        <ele>1324.83</ele>
        <time>2016-09-11T08:30:10Z</time>
      </trkpt>
      <trkpt lat="42.71097" lon="1.6559">
        <ele>1328.2</ele>
        <time>2016-09-11T08:30:37Z</time>
      </trkpt>
      <trkpt lat="42.71092" lon="1.65569">
        <ele>1332.52</ele>
        <time>2016-09-11T08:31:02Z</time>
      </trkpt>
      <trkpt lat="42.71089" lon="1.65559">
        <ele>1335.89</ele>
        <time>2016-09-11T08:31:30Z</time>
      </trkpt>
      <trkpt lat="42.7109" lon="1.65547">
        <ele>1339.73</ele>
        <time>2016-09-11T08:31:56Z</time>
      </trkpt>
      <trkpt lat="42.71092" lon="1.6552">
        <ele>1344.54</ele>
        <time>2016-09-11T08:32:28Z</time>
      </trkpt>
      <trkpt lat="42.71098" lon="1.65517">
        <ele>1348.39</ele>
        <time>2016-09-11T08:32:57Z</time>
      </trkpt>
      <trkpt lat="42.71114" lon="1.65508">
        <ele>1350.79</ele>
        <time>2016-09-11T08:33:28Z</time>
      </trkpt>
      <trkpt lat="42.71109" lon="1.65508">
        <ele>1352.71</ele>
        <time>2016-09-11T08:34:04Z</time>
      </trkpt>
      <trkpt lat="42.71108" lon="1.65509">
        <ele>1349.35</ele>
        <time>2016-09-11T08:34:08Z</time>
      </trkpt>
      <trkpt lat="42.71105" lon="1.65507">
        <ele>1353.19</ele>
        <time>2016-09-11T08:34:14Z</time>
      </trkpt>
      <trkpt lat="42.71109" lon="1.65512">
        <ele>1353.19</ele>
        <time>2016-09-11T08:34:50Z</time>
      </trkpt>
      <trkpt lat="42.7112" lon="1.65515">
        <ele>1354.63</ele>
        <time>2016-09-11T08:35:27Z</time>
      </trkpt>
      <trkpt lat="42.71117" lon="1.65507">
        <ele>1355.6</ele>
        <time>2016-09-11T08:35:49Z</time>
      </trkpt>
      <trkpt lat="42.71103" lon="1.65506">
        <ele>1356.08</ele>
        <time>2016-09-11T08:36:39Z</time>
      </trkpt>
      <trkpt lat="42.71108" lon="1.65503">
        <ele>1356.56</ele>
        <time>2016-09-11T08:36:59Z</time>
      </trkpt>
      <trkpt lat="42.7112" lon="1.65497">
        <ele>1359.92</ele>
        <time>2016-09-11T08:37:27Z</time>
      </trkpt>
      <trkpt lat="42.71127" lon="1.65473">
        <ele>1364.25</ele>
        <time>2016-09-11T08:37:55Z</time>
      </trkpt>
      <trkpt lat="42.71132" lon="1.65454">
        <ele>1368.09</ele>
        <time>2016-09-11T08:38:20Z</time>
      </trkpt>
      <trkpt lat="42.7113" lon="1.65442">
        <ele>1371.46</ele>
        <time>2016-09-11T08:38:35Z</time>
      </trkpt>
      <trkpt lat="42.71133" lon="1.65417">
        <ele>1375.3</ele>
        <time>2016-09-11T08:39:13Z</time>
      </trkpt>
      <trkpt lat="42.71135" lon="1.65391">
        <ele>1375.78</ele>
        <time>2016-09-11T08:39:36Z</time>
      </trkpt>
      <trkpt lat="42.71139" lon="1.65376">
        <ele>1380.11</ele>
        <time>2016-09-11T08:40:04Z</time>
      </trkpt>
      <trkpt lat="42.71141" lon="1.65356">
        <ele>1384.44</ele>
        <time>2016-09-11T08:40:29Z</time>
      </trkpt>
      <trkpt lat="42.71127" lon="1.65344">
        <ele>1385.88</ele>
        <time>2016-09-11T08:40:57Z</time>
      </trkpt>
      <trkpt lat="42.71126" lon="1.65356">
        <ele>1385.88</ele>
        <time>2016-09-11T08:41:18Z</time>
      </trkpt>
      <trkpt lat="42.71126" lon="1.65334">
        <ele>1387.32</ele>
        <time>2016-09-11T08:41:32Z</time>
      </trkpt>
      <trkpt lat="42.7112" lon="1.65309">
        <ele>1388.28</ele>
        <time>2016-09-11T08:41:58Z</time>
      </trkpt>
      <trkpt lat="42.71118" lon="1.65297">
        <ele>1389.24</ele>
        <time>2016-09-11T08:42:32Z</time>
      </trkpt>
      <trkpt lat="42.71128" lon="1.65295">
        <ele>1389.72</ele>
        <time>2016-09-11T08:43:05Z</time>
      </trkpt>
      <trkpt lat="42.71121" lon="1.65271">
        <ele>1391.65</ele>
        <time>2016-09-11T08:43:29Z</time>
      </trkpt>
      <trkpt lat="42.7113" lon="1.65263">
        <ele>1391.17</ele>
        <time>2016-09-11T08:43:42Z</time>
      </trkpt>
      <trkpt lat="42.71139" lon="1.65254">
        <ele>1391.65</ele>
        <time>2016-09-11T08:44:07Z</time>
      </trkpt>
      <trkpt lat="42.71141" lon="1.65249">
        <ele>1391.65</ele>
        <time>2016-09-11T08:44:38Z</time>
      </trkpt>
      <trkpt lat="42.71149" lon="1.65239">
        <ele>1394.53</ele>
        <time>2016-09-11T08:45:10Z</time>
      </trkpt>
      <trkpt lat="42.71159" lon="1.65214">
        <ele>1398.37</ele>
        <time>2016-09-11T08:45:42Z</time>
      </trkpt>
      <trkpt lat="42.7117" lon="1.65214">
        <ele>1402.7</ele>
        <time>2016-09-11T08:46:06Z</time>
      </trkpt>
      <trkpt lat="42.71177" lon="1.65214">
        <ele>1403.18</ele>
        <time>2016-09-11T08:46:18Z</time>
      </trkpt>
      <trkpt lat="42.71201" lon="1.65204">
        <ele>1405.1</ele>
        <time>2016-09-11T08:46:41Z</time>
      </trkpt>
      <trkpt lat="42.71205" lon="1.65186">
        <ele>1407.99</ele>
        <time>2016-09-11T08:47:11Z</time>
      </trkpt>
      <trkpt lat="42.71213" lon="1.6517">
        <ele>1412.79</ele>
        <time>2016-09-11T08:47:40Z</time>
      </trkpt>
      <trkpt lat="42.7123" lon="1.6515">
        <ele>1415.2</ele>
        <time>2016-09-11T08:48:08Z</time>
      </trkpt>
      <trkpt lat="42.71241" lon="1.65131">
        <ele>1418.08</ele>
        <time>2016-09-11T08:48:35Z</time>
      </trkpt>
      <trkpt lat="42.71246" lon="1.65115">
        <ele>1420.49</ele>
        <time>2016-09-11T08:49:05Z</time>
      </trkpt>
      <trkpt lat="42.71254" lon="1.6509">
        <ele>1422.89</ele>
        <time>2016-09-11T08:49:34Z</time>
      </trkpt>
      <trkpt lat="42.71263" lon="1.65076">
        <ele>1427.21</ele>
        <time>2016-09-11T08:50:01Z</time>
      </trkpt>
      <trkpt lat="42.71256" lon="1.65064">
        <ele>1428.66</ele>
        <time>2016-09-11T08:50:13Z</time>
      </trkpt>
      <trkpt lat="42.71255" lon="1.65046">
        <ele>1432.5</ele>
        <time>2016-09-11T08:50:41Z</time>
      </trkpt>
      <trkpt lat="42.71248" lon="1.65024">
        <ele>1436.35</ele>
        <time>2016-09-11T08:51:11Z</time>
      </trkpt>
      <trkpt lat="42.71234" lon="1.65001">
        <ele>1438.75</ele>
        <time>2016-09-11T08:51:38Z</time>
      </trkpt>
      <trkpt lat="42.71236" lon="1.64998">
        <ele>1440.19</ele>
        <time>2016-09-11T08:52:18Z</time>
      </trkpt>
      <trkpt lat="42.71224" lon="1.64984">
        <ele>1441.15</ele>
        <time>2016-09-11T08:52:32Z</time>
      </trkpt>
      <trkpt lat="42.71218" lon="1.64972">
        <ele>1443.56</ele>
        <time>2016-09-11T08:52:50Z</time>
      </trkpt>
      <trkpt lat="42.71194" lon="1.64943">
        <ele>1446.92</ele>
        <time>2016-09-11T08:53:27Z</time>
      </trkpt>
      <trkpt lat="42.71181" lon="1.64928">
        <ele>1448.36</ele>
        <time>2016-09-11T08:53:47Z</time>
      </trkpt>
      <trkpt lat="42.71169" lon="1.64917">
        <ele>1450.77</ele>
        <time>2016-09-11T08:54:15Z</time>
      </trkpt>
      <trkpt lat="42.71156" lon="1.64904">
        <ele>1454.13</ele>
        <time>2016-09-11T08:54:40Z</time>
      </trkpt>
      <trkpt lat="42.71141" lon="1.64883">
        <ele>1455.57</ele>
        <time>2016-09-11T08:55:17Z</time>
      </trkpt>
      <trkpt lat="42.7114" lon="1.64878">
        <ele>1456.05</ele>
        <time>2016-09-11T08:55:56Z</time>
      </trkpt>
      <trkpt lat="42.71134" lon="1.64862">
        <ele>1457.98</ele>
        <time>2016-09-11T08:56:19Z</time>
      </trkpt>
      <trkpt lat="42.71115" lon="1.64838">
        <ele>1459.42</ele>
        <time>2016-09-11T08:56:42Z</time>
      </trkpt>
      <trkpt lat="42.71105" lon="1.64823">
        <ele>1461.34</ele>
        <time>2016-09-11T08:57:06Z</time>
      </trkpt>
      <trkpt lat="42.71092" lon="1.64799">
        <ele>1463.26</ele>
        <time>2016-09-11T08:57:31Z</time>
      </trkpt>
      <trkpt lat="42.71075" lon="1.64784">
        <ele>1464.23</ele>
        <time>2016-09-11T08:57:56Z</time>
      </trkpt>
      <trkpt lat="42.7107" lon="1.64775">
        <ele>1464.71</ele>
        <time>2016-09-11T08:58:24Z</time>
      </trkpt>
      <trkpt lat="42.71071" lon="1.64783">
        <ele>1464.71</ele>
        <time>2016-09-11T08:58:58Z</time>
      </trkpt>
      <trkpt lat="42.71068" lon="1.64768">
        <ele>1467.11</ele>
        <time>2016-09-11T08:59:26Z</time>
      </trkpt>
      <trkpt lat="42.71061" lon="1.6476">
        <ele>1468.07</ele>
        <time>2016-09-11T08:59:50Z</time>
      </trkpt>
      <trkpt lat="42.7106" lon="1.64742">
        <ele>1470.95</ele>
        <time>2016-09-11T09:00:26Z</time>
      </trkpt>
      <trkpt lat="42.7105" lon="1.64736">
        <ele>1472.88</ele>
        <time>2016-09-11T09:00:53Z</time>
      </trkpt>
      <trkpt lat="42.71041" lon="1.64734">
        <ele>1474.32</ele>
        <time>2016-09-11T09:01:18Z</time>
      </trkpt>
      <trkpt lat="42.71048" lon="1.64737">
        <ele>1474.8</ele>
        <time>2016-09-11T09:01:53Z</time>
      </trkpt>
      <trkpt lat="42.7106" lon="1.6474">
        <ele>1474.32</ele>
        <time>2016-09-11T09:02:26Z</time>
      </trkpt>
      <trkpt lat="42.71043" lon="1.6474">
        <ele>1475.76</ele>
        <time>2016-09-11T09:02:54Z</time>
      </trkpt>
      <trkpt lat="42.71032" lon="1.64731">
        <ele>1477.2</ele>
        <time>2016-09-11T09:03:15Z</time>
      </trkpt>
      <trkpt lat="42.71033" lon="1.64717">
        <ele>1479.61</ele>
        <time>2016-09-11T09:03:40Z</time>
      </trkpt>
      <trkpt lat="42.71027" lon="1.647">
        <ele>1481.53</ele>
        <time>2016-09-11T09:04:01Z</time>
      </trkpt>
      <trkpt lat="42.7101" lon="1.64684">
        <ele>1484.89</ele>
        <time>2016-09-11T09:04:39Z</time>
      </trkpt>
      <trkpt lat="42.70998" lon="1.64669">
        <ele>1489.7</ele>
        <time>2016-09-11T09:05:18Z</time>
      </trkpt>
      <trkpt lat="42.70991" lon="1.6465">
        <ele>1492.58</ele>
        <time>2016-09-11T09:05:46Z</time>
      </trkpt>
      <trkpt lat="42.70967" lon="1.64638">
        <ele>1493.06</ele>
        <time>2016-09-11T09:06:29Z</time>
      </trkpt>
      <trkpt lat="42.70957" lon="1.64629">
        <ele>1495.47</ele>
        <time>2016-09-11T09:06:58Z</time>
      </trkpt>
      <trkpt lat="42.70943" lon="1.64621">
        <ele>1498.35</ele>
        <time>2016-09-11T09:07:26Z</time>
      </trkpt>
      <trkpt lat="42.70928" lon="1.64625">
        <ele>1501.72</ele>
        <time>2016-09-11T09:08:05Z</time>
      </trkpt>
      <trkpt lat="42.70922" lon="1.64616">
        <ele>1503.16</ele>
        <time>2016-09-11T09:08:35Z</time>
      </trkpt>
      <trkpt lat="42.70915" lon="1.64615">
        <ele>1504.6</ele>
        <time>2016-09-11T09:09:03Z</time>
      </trkpt>
      <trkpt lat="42.70907" lon="1.64596">
        <ele>1507.48</ele>
        <time>2016-09-11T09:09:26Z</time>
      </trkpt>
      <trkpt lat="42.70901" lon="1.64578">
        <ele>1509.89</ele>
        <time>2016-09-11T09:09:52Z</time>
      </trkpt>
      <trkpt lat="42.70886" lon="1.64562">
        <ele>1513.25</ele>
        <time>2016-09-11T09:10:18Z</time>
      </trkpt>
      <trkpt lat="42.70877" lon="1.64559">
        <ele>1513.25</ele>
        <time>2016-09-11T09:10:30Z</time>
      </trkpt>
      <trkpt lat="42.70862" lon="1.64551">
        <ele>1512.29</ele>
        <time>2016-09-11T09:10:58Z</time>
      </trkpt>
      <trkpt lat="42.70852" lon="1.64547">
        <ele>1513.25</ele>
        <time>2016-09-11T09:11:28Z</time>
      </trkpt>
      <trkpt lat="42.70851" lon="1.6455">
        <ele>1513.73</ele>
        <time>2016-09-11T09:12:00Z</time>
      </trkpt>
      <trkpt lat="42.70853" lon="1.64541">
        <ele>1514.69</ele>
        <time>2016-09-11T09:12:57Z</time>
      </trkpt>
      <trkpt lat="42.70847" lon="1.6454">
        <ele>1515.18</ele>
        <time>2016-09-11T09:13:30Z</time>
      </trkpt>
      <trkpt lat="42.70835" lon="1.64524">
        <ele>1517.58</ele>
        <time>2016-09-11T09:13:54Z</time>
      </trkpt>
      <trkpt lat="42.70814" lon="1.64509">
        <ele>1519.5</ele>
        <time>2016-09-11T09:14:22Z</time>
      </trkpt>
      <trkpt lat="42.70797" lon="1.64493">
        <ele>1520.94</ele>
        <time>2016-09-11T09:14:48Z</time>
      </trkpt>
      <trkpt lat="42.70784" lon="1.64471">
        <ele>1524.31</ele>
        <time>2016-09-11T09:15:25Z</time>
      </trkpt>
      <trkpt lat="42.70779" lon="1.64479">
        <ele>1524.31</ele>
        <time>2016-09-11T09:15:40Z</time>
      </trkpt>
      <trkpt lat="42.70784" lon="1.64477">
        <ele>1524.31</ele>
        <time>2016-09-11T09:16:16Z</time>
      </trkpt>
      <trkpt lat="42.70783" lon="1.64476">
        <ele>1524.31</ele>
        <time>2016-09-11T09:17:09Z</time>
      </trkpt>
      <trkpt lat="42.70782" lon="1.64481">
        <ele>1524.79</ele>
        <time>2016-09-11T09:17:39Z</time>
      </trkpt>
      <trkpt lat="42.70763" lon="1.64472">
        <ele>1526.23</ele>
        <time>2016-09-11T09:18:02Z</time>
      </trkpt>
      <trkpt lat="42.70749" lon="1.64461">
        <ele>1528.15</ele>
        <time>2016-09-11T09:18:29Z</time>
      </trkpt>
      <trkpt lat="42.70742" lon="1.64442">
        <ele>1530.56</ele>
        <time>2016-09-11T09:18:53Z</time>
      </trkpt>
      <trkpt lat="42.70729" lon="1.64429">
        <ele>1532.96</ele>
        <time>2016-09-11T09:19:17Z</time>
      </trkpt>
      <trkpt lat="42.70713" lon="1.64413">
        <ele>1533.92</ele>
        <time>2016-09-11T09:19:53Z</time>
      </trkpt>
      <trkpt lat="42.70701" lon="1.64398">
        <ele>1536.32</ele>
        <time>2016-09-11T09:20:23Z</time>
      </trkpt>
      <trkpt lat="42.70695" lon="1.64391">
        <ele>1536.32</ele>
        <time>2016-09-11T09:20:33Z</time>
      </trkpt>
      <trkpt lat="42.70685" lon="1.64385">
        <ele>1537.29</ele>
        <time>2016-09-11T09:20:58Z</time>
      </trkpt>
      <trkpt lat="42.70671" lon="1.64375">
        <ele>1538.25</ele>
        <time>2016-09-11T09:21:24Z</time>
      </trkpt>
      <trkpt lat="42.70659" lon="1.6437">
        <ele>1538.25</ele>
        <time>2016-09-11T09:22:02Z</time>
      </trkpt>
      <trkpt lat="42.70644" lon="1.64354">
        <ele>1539.69</ele>
        <time>2016-09-11T09:22:25Z</time>
      </trkpt>
      <trkpt lat="42.70629" lon="1.64333">
        <ele>1541.13</ele>
        <time>2016-09-11T09:22:57Z</time>
      </trkpt>
      <trkpt lat="42.70621" lon="1.6433">
        <ele>1541.13</ele>
        <time>2016-09-11T09:23:29Z</time>
      </trkpt>
      <trkpt lat="42.70609" lon="1.64323">
        <ele>1542.09</ele>
        <time>2016-09-11T09:23:42Z</time>
      </trkpt>
      <trkpt lat="42.70599" lon="1.64313">
        <ele>1542.57</ele>
        <time>2016-09-11T09:23:57Z</time>
      </trkpt>
      <trkpt lat="42.70577" lon="1.64309">
        <ele>1543.05</ele>
        <time>2016-09-11T09:24:19Z</time>
      </trkpt>
      <trkpt lat="42.70548" lon="1.64282">
        <ele>1545.94</ele>
        <time>2016-09-11T09:25:00Z</time>
      </trkpt>
      <trkpt lat="42.70545" lon="1.64278">
        <ele>1545.94</ele>
        <time>2016-09-11T09:25:10Z</time>
      </trkpt>
      <trkpt lat="42.70534" lon="1.64274">
        <ele>1546.42</ele>
        <time>2016-09-11T09:25:29Z</time>
      </trkpt>
      <trkpt lat="42.70536" lon="1.64274">
        <ele>1547.86</ele>
        <time>2016-09-11T09:25:55Z</time>
      </trkpt>
      <trkpt lat="42.70529" lon="1.64272">
        <ele>1547.86</ele>
        <time>2016-09-11T09:26:28Z</time>
      </trkpt>
      <trkpt lat="42.70517" lon="1.64256">
        <ele>1550.26</ele>
        <time>2016-09-11T09:26:52Z</time>
      </trkpt>
      <trkpt lat="42.70499" lon="1.64233">
        <ele>1553.63</ele>
        <time>2016-09-11T09:27:28Z</time>
      </trkpt>
      <trkpt lat="42.70482" lon="1.64221">
        <ele>1556.51</ele>
        <time>2016-09-11T09:27:59Z</time>
      </trkpt>
      <trkpt lat="42.70462" lon="1.64217">
        <ele>1558.43</ele>
        <time>2016-09-11T09:28:31Z</time>
      </trkpt>
      <trkpt lat="42.70449" lon="1.64209">
        <ele>1560.36</ele>
        <time>2016-09-11T09:28:55Z</time>
      </trkpt>
      <trkpt lat="42.70432" lon="1.64212">
        <ele>1564.68</ele>
        <time>2016-09-11T09:29:32Z</time>
      </trkpt>
      <trkpt lat="42.70429" lon="1.64219">
        <ele>1566.12</ele>
        <time>2016-09-11T09:30:05Z</time>
      </trkpt>
      <trkpt lat="42.70433" lon="1.64228">
        <ele>1567.09</ele>
        <time>2016-09-11T09:31:22Z</time>
      </trkpt>
      <trkpt lat="42.70446" lon="1.64225">
        <ele>1567.09</ele>
        <time>2016-09-11T09:32:50Z</time>
      </trkpt>
      <trkpt lat="42.70439" lon="1.64231">
        <ele>1567.57</ele>
        <time>2016-09-11T09:33:17Z</time>
      </trkpt>
      <trkpt lat="42.70425" lon="1.6422">
        <ele>1568.53</ele>
        <time>2016-09-11T09:33:37Z</time>
      </trkpt>
      <trkpt lat="42.70428" lon="1.64218">
        <ele>1569.01</ele>
        <time>2016-09-11T09:33:52Z</time>
      </trkpt>
      <trkpt lat="42.70413" lon="1.6422">
        <ele>1572.37</ele>
        <time>2016-09-11T09:34:11Z</time>
      </trkpt>
      <trkpt lat="42.70398" lon="1.64237">
        <ele>1574.3</ele>
        <time>2016-09-11T09:34:45Z</time>
      </trkpt>
      <trkpt lat="42.7039" lon="1.64241">
        <ele>1575.26</ele>
        <time>2016-09-11T09:35:09Z</time>
      </trkpt>
      <trkpt lat="42.70381" lon="1.64235">
        <ele>1578.14</ele>
        <time>2016-09-11T09:35:39Z</time>
      </trkpt>
      <trkpt lat="42.70369" lon="1.64227">
        <ele>1580.06</ele>
        <time>2016-09-11T09:36:13Z</time>
      </trkpt>
      <trkpt lat="42.70363" lon="1.64217">
        <ele>1581.51</ele>
        <time>2016-09-11T09:36:26Z</time>
      </trkpt>
      <trkpt lat="42.70357" lon="1.64198">
        <ele>1582.95</ele>
        <time>2016-09-11T09:36:49Z</time>
      </trkpt>
      <trkpt lat="42.70349" lon="1.64167">
        <ele>1582.47</ele>
        <time>2016-09-11T09:37:14Z</time>
      </trkpt>
      <trkpt lat="42.70346" lon="1.64148">
        <ele>1582.47</ele>
        <time>2016-09-11T09:37:30Z</time>
      </trkpt>
      <trkpt lat="42.70354" lon="1.64096">
        <ele>1582.47</ele>
        <time>2016-09-11T09:38:08Z</time>
      </trkpt>
      <trkpt lat="42.70352" lon="1.6409">
        <ele>1581.51</ele>
        <time>2016-09-11T09:38:31Z</time>
      </trkpt>
      <trkpt lat="42.70348" lon="1.64088">
        <ele>1581.51</ele>
        <time>2016-09-11T09:38:48Z</time>
      </trkpt>
      <trkpt lat="42.70345" lon="1.64098">
        <ele>1581.99</ele>
        <time>2016-09-11T09:39:25Z</time>
      </trkpt>
      <trkpt lat="42.70349" lon="1.64083">
        <ele>1581.99</ele>
        <time>2016-09-11T09:39:41Z</time>
      </trkpt>
      <trkpt lat="42.70348" lon="1.6408">
        <ele>1581.99</ele>
        <time>2016-09-11T09:40:12Z</time>
      </trkpt>
      <trkpt lat="42.70347" lon="1.64072">
        <ele>1581.99</ele>
        <time>2016-09-11T09:40:34Z</time>
      </trkpt>
      <trkpt lat="42.70333" lon="1.6404">
        <ele>1582.47</ele>
        <time>2016-09-11T09:40:59Z</time>
      </trkpt>
      <trkpt lat="42.70334" lon="1.64034">
        <ele>1582.47</ele>
        <time>2016-09-11T09:41:04Z</time>
      </trkpt>
      <trkpt lat="42.70327" lon="1.64003">
        <ele>1583.43</ele>
        <time>2016-09-11T09:41:26Z</time>
      </trkpt>
      <trkpt lat="42.70326" lon="1.64003">
        <ele>1582.95</ele>
        <time>2016-09-11T09:41:37Z</time>
      </trkpt>
      <trkpt lat="42.70325" lon="1.63975">
        <ele>1583.43</ele>
        <time>2016-09-11T09:41:53Z</time>
      </trkpt>
      <trkpt lat="42.70319" lon="1.63951">
        <ele>1583.43</ele>
        <time>2016-09-11T09:42:11Z</time>
      </trkpt>
      <trkpt lat="42.70323" lon="1.63944">
        <ele>1583.43</ele>
        <time>2016-09-11T09:42:22Z</time>
      </trkpt>
      <trkpt lat="42.70321" lon="1.63928">
        <ele>1584.39</ele>
        <time>2016-09-11T09:42:33Z</time>
      </trkpt>
      <trkpt lat="42.70306" lon="1.63902">
        <ele>1584.39</ele>
        <time>2016-09-11T09:43:20Z</time>
      </trkpt>
      <trkpt lat="42.70308" lon="1.639">
        <ele>1584.87</ele>
        <time>2016-09-11T09:43:55Z</time>
      </trkpt>
      <trkpt lat="42.70303" lon="1.639">
        <ele>1583.91</ele>
        <time>2016-09-11T09:44:36Z</time>
      </trkpt>
      <trkpt lat="42.70305" lon="1.63897">
        <ele>1584.87</ele>
        <time>2016-09-11T09:45:12Z</time>
      </trkpt>
      <trkpt lat="42.70311" lon="1.63887">
        <ele>1584.87</ele>
        <time>2016-09-11T09:45:27Z</time>
      </trkpt>
      <trkpt lat="42.70313" lon="1.6387">
        <ele>1585.35</ele>
        <time>2016-09-11T09:45:39Z</time>
      </trkpt>
      <trkpt lat="42.70321" lon="1.63828">
        <ele>1586.31</ele>
        <time>2016-09-11T09:46:13Z</time>
      </trkpt>
      <trkpt lat="42.70319" lon="1.63788">
        <ele>1587.27</ele>
        <time>2016-09-11T09:46:44Z</time>
      </trkpt>
      <trkpt lat="42.70321" lon="1.63777">
        <ele>1587.27</ele>
        <time>2016-09-11T09:46:53Z</time>
      </trkpt>
      <trkpt lat="42.7032" lon="1.6373">
        <ele>1588.72</ele>
        <time>2016-09-11T09:47:28Z</time>
      </trkpt>
      <trkpt lat="42.70326" lon="1.63682">
        <ele>1589.68</ele>
        <time>2016-09-11T09:48:04Z</time>
      </trkpt>
      <trkpt lat="42.70329" lon="1.6364">
        <ele>1590.64</ele>
        <time>2016-09-11T09:48:38Z</time>
      </trkpt>
      <trkpt lat="42.7033" lon="1.63622">
        <ele>1590.16</ele>
        <time>2016-09-11T09:48:51Z</time>
      </trkpt>
      <trkpt lat="42.70325" lon="1.63595">
        <ele>1591.6</ele>
        <time>2016-09-11T09:49:13Z</time>
      </trkpt>
      <trkpt lat="42.70326" lon="1.63565">
        <ele>1593.52</ele>
        <time>2016-09-11T09:49:36Z</time>
      </trkpt>
      <trkpt lat="42.70313" lon="1.63549">
        <ele>1593.52</ele>
        <time>2016-09-11T09:49:50Z</time>
      </trkpt>
      <trkpt lat="42.70307" lon="1.63528">
        <ele>1595.93</ele>
        <time>2016-09-11T09:50:13Z</time>
      </trkpt>
      <trkpt lat="42.70304" lon="1.63503">
        <ele>1598.33</ele>
        <time>2016-09-11T09:50:37Z</time>
      </trkpt>
      <trkpt lat="42.70303" lon="1.635">
        <ele>1598.33</ele>
        <time>2016-09-11T09:51:11Z</time>
      </trkpt>
      <trkpt lat="42.70303" lon="1.63497">
        <ele>1596.89</ele>
        <time>2016-09-11T09:51:52Z</time>
      </trkpt>
      <trkpt lat="42.70303" lon="1.63497">
        <ele>1600.25</ele>
        <time>2016-09-11T09:51:57Z</time>
      </trkpt>
      <trkpt lat="42.70303" lon="1.63497">
        <ele>1596.89</ele>
        <time>2016-09-11T09:52:04Z</time>
      </trkpt>
      <trkpt lat="42.70301" lon="1.63498">
        <ele>1600.25</ele>
        <time>2016-09-11T09:52:09Z</time>
      </trkpt>
      <trkpt lat="42.70301" lon="1.63485">
        <ele>1599.77</ele>
        <time>2016-09-11T09:52:34Z</time>
      </trkpt>
      <trkpt lat="42.70301" lon="1.63445">
        <ele>1601.21</ele>
        <time>2016-09-11T09:53:07Z</time>
      </trkpt>
      <trkpt lat="42.70313" lon="1.63409">
        <ele>1601.21</ele>
        <time>2016-09-11T09:53:39Z</time>
      </trkpt>
      <trkpt lat="42.70327" lon="1.634">
        <ele>1601.69</ele>
        <time>2016-09-11T09:53:58Z</time>
      </trkpt>
      <trkpt lat="42.70337" lon="1.63378">
        <ele>1604.1</ele>
        <time>2016-09-11T09:54:19Z</time>
      </trkpt>
      <trkpt lat="42.70341" lon="1.63366">
        <ele>1604.1</ele>
        <time>2016-09-11T09:54:29Z</time>
      </trkpt>
      <trkpt lat="42.70344" lon="1.63335">
        <ele>1608.42</ele>
        <time>2016-09-11T09:55:02Z</time>
      </trkpt>
      <trkpt lat="42.70344" lon="1.6332">
        <ele>1611.31</ele>
        <time>2016-09-11T09:55:18Z</time>
      </trkpt>
      <trkpt lat="42.70344" lon="1.63306">
        <ele>1612.75</ele>
        <time>2016-09-11T09:55:30Z</time>
      </trkpt>
      <trkpt lat="42.70336" lon="1.63284">
        <ele>1616.11</ele>
        <time>2016-09-11T09:55:54Z</time>
      </trkpt>
      <trkpt lat="42.70335" lon="1.6327">
        <ele>1616.11</ele>
        <time>2016-09-11T09:56:07Z</time>
      </trkpt>
      <trkpt lat="42.7033" lon="1.63264">
        <ele>1617.07</ele>
        <time>2016-09-11T09:56:30Z</time>
      </trkpt>
      <trkpt lat="42.70333" lon="1.63275">
        <ele>1616.11</ele>
        <time>2016-09-11T09:56:46Z</time>
      </trkpt>
      <trkpt lat="42.70328" lon="1.63265">
        <ele>1617.07</ele>
        <time>2016-09-11T09:57:13Z</time>
      </trkpt>
      <trkpt lat="42.70336" lon="1.63272">
        <ele>1616.59</ele>
        <time>2016-09-11T09:57:37Z</time>
      </trkpt>
      <trkpt lat="42.7033" lon="1.63275">
        <ele>1616.59</ele>
        <time>2016-09-11T09:57:57Z</time>
      </trkpt>
      <trkpt lat="42.70329" lon="1.63277">
        <ele>1616.11</ele>
        <time>2016-09-11T09:58:29Z</time>
      </trkpt>
      <trkpt lat="42.70332" lon="1.63267">
        <ele>1616.59</ele>
        <time>2016-09-11T09:59:30Z</time>
      </trkpt>
      <trkpt lat="42.7033" lon="1.63277">
        <ele>1616.59</ele>
        <time>2016-09-11T09:59:47Z</time>
      </trkpt>
      <trkpt lat="42.70335" lon="1.63267">
        <ele>1615.63</ele>
        <time>2016-09-11T10:00:08Z</time>
      </trkpt>
      <trkpt lat="42.70345" lon="1.63262">
        <ele>1615.15</ele>
        <time>2016-09-11T10:00:28Z</time>
      </trkpt>
      <trkpt lat="42.70342" lon="1.6326">
        <ele>1614.67</ele>
        <time>2016-09-11T10:01:03Z</time>
      </trkpt>
      <trkpt lat="42.70343" lon="1.63265">
        <ele>1614.67</ele>
        <time>2016-09-11T10:01:43Z</time>
      </trkpt>
      <trkpt lat="42.70352" lon="1.63266">
        <ele>1613.23</ele>
        <time>2016-09-11T10:02:19Z</time>
      </trkpt>
      <trkpt lat="42.70349" lon="1.63269">
        <ele>1612.27</ele>
        <time>2016-09-11T10:03:00Z</time>
      </trkpt>
      <trkpt lat="42.70351" lon="1.63266">
        <ele>1612.27</ele>
        <time>2016-09-11T10:03:49Z</time>
      </trkpt>
      <trkpt lat="42.70351" lon="1.63269">
        <ele>1612.75</ele>
        <time>2016-09-11T10:04:52Z</time>
      </trkpt>
      <trkpt lat="42.70352" lon="1.63269">
        <ele>1613.23</ele>
        <time>2016-09-11T10:05:37Z</time>
      </trkpt>
      <trkpt lat="42.70346" lon="1.63269">
        <ele>1613.71</ele>
        <time>2016-09-11T10:06:48Z</time>
      </trkpt>
      <trkpt lat="42.70352" lon="1.63267">
        <ele>1613.23</ele>
        <time>2016-09-11T10:07:15Z</time>
      </trkpt>
      <trkpt lat="42.70358" lon="1.63269">
        <ele>1613.71</ele>
        <time>2016-09-11T10:08:08Z</time>
      </trkpt>
      <trkpt lat="42.70356" lon="1.63265">
        <ele>1613.71</ele>
        <time>2016-09-11T10:09:02Z</time>
      </trkpt>
      <trkpt lat="42.70357" lon="1.63267">
        <ele>1614.19</ele>
        <time>2016-09-11T10:09:54Z</time>
      </trkpt>
      <trkpt lat="42.7035" lon="1.63266">
        <ele>1614.67</ele>
        <time>2016-09-11T10:11:17Z</time>
      </trkpt>
      <trkpt lat="42.70353" lon="1.63268">
        <ele>1614.67</ele>
        <time>2016-09-11T10:12:05Z</time>
      </trkpt>
      <trkpt lat="42.70355" lon="1.63266">
        <ele>1615.63</ele>
        <time>2016-09-11T10:13:21Z</time>
      </trkpt>
      <trkpt lat="42.70359" lon="1.63264">
        <ele>1616.11</ele>
        <time>2016-09-11T10:14:10Z</time>
      </trkpt>
      <trkpt lat="42.70357" lon="1.63268">
        <ele>1615.63</ele>
        <time>2016-09-11T10:15:00Z</time>
      </trkpt>
      <trkpt lat="42.70357" lon="1.63266">
        <ele>1616.59</ele>
        <time>2016-09-11T10:16:00Z</time>
      </trkpt>
      <trkpt lat="42.70356" lon="1.63268">
        <ele>1616.59</ele>
        <time>2016-09-11T10:16:50Z</time>
      </trkpt>
      <trkpt lat="42.70352" lon="1.63268">
        <ele>1616.59</ele>
        <time>2016-09-11T10:17:43Z</time>
      </trkpt>
      <trkpt lat="42.70356" lon="1.63267">
        <ele>1617.56</ele>
        <time>2016-09-11T10:18:41Z</time>
      </trkpt>
      <trkpt lat="42.70352" lon="1.63268">
        <ele>1617.56</ele>
        <time>2016-09-11T10:19:50Z</time>
      </trkpt>
      <trkpt lat="42.70355" lon="1.6327">
        <ele>1617.07</ele>
        <time>2016-09-11T10:21:17Z</time>
      </trkpt>
      <trkpt lat="42.70357" lon="1.63271">
        <ele>1617.56</ele>
        <time>2016-09-11T10:22:39Z</time>
      </trkpt>
      <trkpt lat="42.70355" lon="1.6327">
        <ele>1618.04</ele>
        <time>2016-09-11T10:23:43Z</time>
      </trkpt>
      <trkpt lat="42.70352" lon="1.63265">
        <ele>1618.52</ele>
        <time>2016-09-11T10:24:35Z</time>
      </trkpt>
      <trkpt lat="42.70352" lon="1.63269">
        <ele>1618.52</ele>
        <time>2016-09-11T10:26:05Z</time>
      </trkpt>
      <trkpt lat="42.7035" lon="1.6327">
        <ele>1619</ele>
        <time>2016-09-11T10:27:34Z</time>
      </trkpt>
      <trkpt lat="42.70357" lon="1.63274">
        <ele>1619</ele>
        <time>2016-09-11T10:28:35Z</time>
      </trkpt>
      <trkpt lat="42.70358" lon="1.63271">
        <ele>1619</ele>
        <time>2016-09-11T10:29:39Z</time>
      </trkpt>
      <trkpt lat="42.70355" lon="1.6327">
        <ele>1619.96</ele>
        <time>2016-09-11T10:30:43Z</time>
      </trkpt>
      <trkpt lat="42.70354" lon="1.6327">
        <ele>1619.96</ele>
        <time>2016-09-11T10:31:40Z</time>
      </trkpt>
      <trkpt lat="42.70356" lon="1.63267">
        <ele>1620.44</ele>
        <time>2016-09-11T10:32:41Z</time>
      </trkpt>
      <trkpt lat="42.70349" lon="1.63267">
        <ele>1619.48</ele>
        <time>2016-09-11T10:33:42Z</time>
      </trkpt>
      <trkpt lat="42.70348" lon="1.63266">
        <ele>1619.96</ele>
        <time>2016-09-11T10:34:44Z</time>
      </trkpt>
      <trkpt lat="42.70354" lon="1.63267">
        <ele>1619.96</ele>
        <time>2016-09-11T10:35:47Z</time>
      </trkpt>
      <trkpt lat="42.70349" lon="1.63267">
        <ele>1619.96</ele>
        <time>2016-09-11T10:36:48Z</time>
      </trkpt>
      <trkpt lat="42.70349" lon="1.63264">
        <ele>1619.96</ele>
        <time>2016-09-11T10:38:09Z</time>
      </trkpt>
      <trkpt lat="42.7035" lon="1.63267">
        <ele>1619.96</ele>
        <time>2016-09-11T10:39:05Z</time>
      </trkpt>
      <trkpt lat="42.70352" lon="1.63268">
        <ele>1620.44</ele>
        <time>2016-09-11T10:40:03Z</time>
      </trkpt>
      <trkpt lat="42.70348" lon="1.63265">
        <ele>1620.44</ele>
        <time>2016-09-11T10:41:12Z</time>
      </trkpt>
      <trkpt lat="42.70357" lon="1.63269">
        <ele>1620.92</ele>
        <time>2016-09-11T10:42:15Z</time>
      </trkpt>
      <trkpt lat="42.70358" lon="1.6327">
        <ele>1621.4</ele>
        <time>2016-09-11T10:44:04Z</time>
      </trkpt>
      <trkpt lat="42.70359" lon="1.63269">
        <ele>1621.4</ele>
        <time>2016-09-11T10:45:00Z</time>
      </trkpt>
      <trkpt lat="42.70355" lon="1.63269">
        <ele>1621.4</ele>
        <time>2016-09-11T10:45:59Z</time>
      </trkpt>
      <trkpt lat="42.70355" lon="1.63268">
        <ele>1621.88</ele>
        <time>2016-09-11T10:47:03Z</time>
      </trkpt>
      <trkpt lat="42.70356" lon="1.6327">
        <ele>1621.88</ele>
        <time>2016-09-11T10:48:33Z</time>
      </trkpt>
      <trkpt lat="42.70357" lon="1.63267">
        <ele>1622.36</ele>
        <time>2016-09-11T10:49:35Z</time>
      </trkpt>
      <trkpt lat="42.70359" lon="1.6327">
        <ele>1622.36</ele>
        <time>2016-09-11T10:50:57Z</time>
      </trkpt>
      <trkpt lat="42.70356" lon="1.63272">
        <ele>1622.36</ele>
        <time>2016-09-11T10:51:59Z</time>
      </trkpt>
      <trkpt lat="42.70361" lon="1.6327">
        <ele>1622.84</ele>
        <time>2016-09-11T10:53:32Z</time>
      </trkpt>
      <trkpt lat="42.70361" lon="1.63269">
        <ele>1623.32</ele>
        <time>2016-09-11T10:54:35Z</time>
      </trkpt>
      <trkpt lat="42.70359" lon="1.6327">
        <ele>1623.32</ele>
        <time>2016-09-11T10:55:32Z</time>
      </trkpt>
      <trkpt lat="42.70359" lon="1.63269">
        <ele>1623.8</ele>
        <time>2016-09-11T10:57:07Z</time>
      </trkpt>
      <trkpt lat="42.70359" lon="1.63268">
        <ele>1623.8</ele>
        <time>2016-09-11T10:59:14Z</time>
      </trkpt>
      <trkpt lat="42.70356" lon="1.63267">
        <ele>1624.28</ele>
        <time>2016-09-11T11:00:50Z</time>
      </trkpt>
      <trkpt lat="42.70357" lon="1.63261">
        <ele>1624.28</ele>
        <time>2016-09-11T11:01:30Z</time>
      </trkpt>
      <trkpt lat="42.7035" lon="1.63253">
        <ele>1625.73</ele>
        <time>2016-09-11T11:02:01Z</time>
      </trkpt>
      <trkpt lat="42.70346" lon="1.63246">
        <ele>1625.73</ele>
        <time>2016-09-11T11:02:36Z</time>
      </trkpt>
      <trkpt lat="42.70346" lon="1.63248">
        <ele>1626.21</ele>
        <time>2016-09-11T11:03:09Z</time>
      </trkpt>
      <trkpt lat="42.70349" lon="1.63248">
        <ele>1626.21</ele>
        <time>2016-09-11T11:03:50Z</time>
      </trkpt>
      <trkpt lat="42.70357" lon="1.63249">
        <ele>1625.25</ele>
        <time>2016-09-11T11:04:22Z</time>
      </trkpt>
      <trkpt lat="42.70356" lon="1.63243">
        <ele>1626.69</ele>
        <time>2016-09-11T11:04:44Z</time>
      </trkpt>
      <trkpt lat="42.7037" lon="1.63238">
        <ele>1628.61</ele>
        <time>2016-09-11T11:05:12Z</time>
      </trkpt>
      <trkpt lat="42.70384" lon="1.63247">
        <ele>1631.98</ele>
        <time>2016-09-11T11:05:48Z</time>
      </trkpt>
      <trkpt lat="42.70388" lon="1.63244">
        <ele>1633.9</ele>
        <time>2016-09-11T11:06:32Z</time>
      </trkpt>
      <trkpt lat="42.7039" lon="1.63251">
        <ele>1632.46</ele>
        <time>2016-09-11T11:06:57Z</time>
      </trkpt>
      <trkpt lat="42.7039" lon="1.63252">
        <ele>1633.9</ele>
        <time>2016-09-11T11:07:16Z</time>
      </trkpt>
      <trkpt lat="42.70393" lon="1.63251">
        <ele>1633.42</ele>
        <time>2016-09-11T11:08:22Z</time>
      </trkpt>
      <trkpt lat="42.7039" lon="1.63244">
        <ele>1633.9</ele>
        <time>2016-09-11T11:09:10Z</time>
      </trkpt>
      <trkpt lat="42.70401" lon="1.63253">
        <ele>1635.34</ele>
        <time>2016-09-11T11:09:44Z</time>
      </trkpt>
      <trkpt lat="42.70407" lon="1.63249">
        <ele>1639.19</ele>
        <time>2016-09-11T11:10:10Z</time>
      </trkpt>
      <trkpt lat="42.70411" lon="1.63258">
        <ele>1642.07</ele>
        <time>2016-09-11T11:10:35Z</time>
      </trkpt>
      <trkpt lat="42.70418" lon="1.63253">
        <ele>1645.43</ele>
        <time>2016-09-11T11:11:01Z</time>
      </trkpt>
      <trkpt lat="42.70422" lon="1.63249">
        <ele>1648.8</ele>
        <time>2016-09-11T11:11:08Z</time>
      </trkpt>
      <trkpt lat="42.70422" lon="1.63249">
        <ele>1645.43</ele>
        <time>2016-09-11T11:11:10Z</time>
      </trkpt>
      <trkpt lat="42.70427" lon="1.63247">
        <ele>1648.32</ele>
        <time>2016-09-11T11:11:25Z</time>
      </trkpt>
      <trkpt lat="42.70437" lon="1.63231">
        <ele>1652.16</ele>
        <time>2016-09-11T11:12:04Z</time>
      </trkpt>
      <trkpt lat="42.70442" lon="1.63233">
        <ele>1655.53</ele>
        <time>2016-09-11T11:12:26Z</time>
      </trkpt>
      <trkpt lat="42.70446" lon="1.63239">
        <ele>1655.53</ele>
        <time>2016-09-11T11:12:42Z</time>
      </trkpt>
      <trkpt lat="42.7045" lon="1.63244">
        <ele>1658.41</ele>
        <time>2016-09-11T11:12:56Z</time>
      </trkpt>
      <trkpt lat="42.70458" lon="1.63245">
        <ele>1661.78</ele>
        <time>2016-09-11T11:13:20Z</time>
      </trkpt>
      <trkpt lat="42.70464" lon="1.63259">
        <ele>1664.18</ele>
        <time>2016-09-11T11:13:44Z</time>
      </trkpt>
      <trkpt lat="42.70468" lon="1.63258">
        <ele>1664.66</ele>
        <time>2016-09-11T11:14:21Z</time>
      </trkpt>
      <trkpt lat="42.70476" lon="1.63259">
        <ele>1668.99</ele>
        <time>2016-09-11T11:14:40Z</time>
      </trkpt>
      <trkpt lat="42.70477" lon="1.6326">
        <ele>1664.66</ele>
        <time>2016-09-11T11:14:44Z</time>
      </trkpt>
      <trkpt lat="42.70477" lon="1.6326">
        <ele>1668.51</ele>
        <time>2016-09-11T11:14:45Z</time>
      </trkpt>
      <trkpt lat="42.70487" lon="1.6326">
        <ele>1669.47</ele>
        <time>2016-09-11T11:15:11Z</time>
      </trkpt>
      <trkpt lat="42.70503" lon="1.6327">
        <ele>1674.75</ele>
        <time>2016-09-11T11:15:41Z</time>
      </trkpt>
      <trkpt lat="42.70504" lon="1.63272">
        <ele>1673.31</ele>
        <time>2016-09-11T11:15:49Z</time>
      </trkpt>
      <trkpt lat="42.70511" lon="1.63276">
        <ele>1676.2</ele>
        <time>2016-09-11T11:16:35Z</time>
      </trkpt>
      <trkpt lat="42.70519" lon="1.63291">
        <ele>1679.56</ele>
        <time>2016-09-11T11:16:56Z</time>
      </trkpt>
      <trkpt lat="42.70525" lon="1.63305">
        <ele>1682.93</ele>
        <time>2016-09-11T11:17:20Z</time>
      </trkpt>
      <trkpt lat="42.70528" lon="1.63313">
        <ele>1686.77</ele>
        <time>2016-09-11T11:17:35Z</time>
      </trkpt>
      <trkpt lat="42.70528" lon="1.63314">
        <ele>1681.96</ele>
        <time>2016-09-11T11:17:36Z</time>
      </trkpt>
      <trkpt lat="42.70528" lon="1.63315">
        <ele>1686.29</ele>
        <time>2016-09-11T11:17:37Z</time>
      </trkpt>
      <trkpt lat="42.70529" lon="1.63318">
        <ele>1681.96</ele>
        <time>2016-09-11T11:17:41Z</time>
      </trkpt>
      <trkpt lat="42.70529" lon="1.63318">
        <ele>1685.81</ele>
        <time>2016-09-11T11:17:42Z</time>
      </trkpt>
      <trkpt lat="42.7053" lon="1.63323">
        <ele>1682.44</ele>
        <time>2016-09-11T11:17:51Z</time>
      </trkpt>
      <trkpt lat="42.7053" lon="1.63323">
        <ele>1685.81</ele>
        <time>2016-09-11T11:17:52Z</time>
      </trkpt>
      <trkpt lat="42.7053" lon="1.63326">
        <ele>1689.17</ele>
        <time>2016-09-11T11:17:57Z</time>
      </trkpt>
      <trkpt lat="42.70533" lon="1.63328">
        <ele>1685.81</ele>
        <time>2016-09-11T11:18:06Z</time>
      </trkpt>
      <trkpt lat="42.70534" lon="1.6333">
        <ele>1689.65</ele>
        <time>2016-09-11T11:18:09Z</time>
      </trkpt>
      <trkpt lat="42.7054" lon="1.63344">
        <ele>1690.62</ele>
        <time>2016-09-11T11:18:32Z</time>
      </trkpt>
      <trkpt lat="42.70548" lon="1.63347">
        <ele>1691.58</ele>
        <time>2016-09-11T11:19:00Z</time>
      </trkpt>
      <trkpt lat="42.70554" lon="1.63355">
        <ele>1694.94</ele>
        <time>2016-09-11T11:19:42Z</time>
      </trkpt>
      <trkpt lat="42.7056" lon="1.63368">
        <ele>1697.83</ele>
        <time>2016-09-11T11:20:04Z</time>
      </trkpt>
      <trkpt lat="42.70565" lon="1.63382">
        <ele>1699.27</ele>
        <time>2016-09-11T11:20:27Z</time>
      </trkpt>
      <trkpt lat="42.70569" lon="1.63402">
        <ele>1702.63</ele>
        <time>2016-09-11T11:21:00Z</time>
      </trkpt>
      <trkpt lat="42.70571" lon="1.63442">
        <ele>1706</ele>
        <time>2016-09-11T11:21:50Z</time>
      </trkpt>
      <trkpt lat="42.70571" lon="1.6346">
        <ele>1707.92</ele>
        <time>2016-09-11T11:22:13Z</time>
      </trkpt>
      <trkpt lat="42.70576" lon="1.63471">
        <ele>1712.25</ele>
        <time>2016-09-11T11:22:39Z</time>
      </trkpt>
      <trkpt lat="42.70582" lon="1.63471">
        <ele>1714.17</ele>
        <time>2016-09-11T11:23:24Z</time>
      </trkpt>
      <trkpt lat="42.70587" lon="1.6348">
        <ele>1716.57</ele>
        <time>2016-09-11T11:23:57Z</time>
      </trkpt>
      <trkpt lat="42.70595" lon="1.635">
        <ele>1718.97</ele>
        <time>2016-09-11T11:24:22Z</time>
      </trkpt>
      <trkpt lat="42.706" lon="1.63504">
        <ele>1721.38</ele>
        <time>2016-09-11T11:24:44Z</time>
      </trkpt>
      <trkpt lat="42.70605" lon="1.63521">
        <ele>1722.82</ele>
        <time>2016-09-11T11:25:08Z</time>
      </trkpt>
      <trkpt lat="42.70609" lon="1.63538">
        <ele>1726.18</ele>
        <time>2016-09-11T11:25:31Z</time>
      </trkpt>
      <trkpt lat="42.70611" lon="1.63536">
        <ele>1726.18</ele>
        <time>2016-09-11T11:25:50Z</time>
      </trkpt>
      <trkpt lat="42.70614" lon="1.63554">
        <ele>1728.59</ele>
        <time>2016-09-11T11:26:33Z</time>
      </trkpt>
      <trkpt lat="42.70617" lon="1.63555">
        <ele>1730.51</ele>
        <time>2016-09-11T11:27:02Z</time>
      </trkpt>
      <trkpt lat="42.70622" lon="1.63571">
        <ele>1733.39</ele>
        <time>2016-09-11T11:27:34Z</time>
      </trkpt>
      <trkpt lat="42.70626" lon="1.63575">
        <ele>1738.2</ele>
        <time>2016-09-11T11:27:47Z</time>
      </trkpt>
      <trkpt lat="42.70627" lon="1.63575">
        <ele>1738.2</ele>
        <time>2016-09-11T11:27:48Z</time>
      </trkpt>
      <trkpt lat="42.70628" lon="1.63575">
        <ele>1735.8</ele>
        <time>2016-09-11T11:27:50Z</time>
      </trkpt>
      <trkpt lat="42.70636" lon="1.63582">
        <ele>1739.16</ele>
        <time>2016-09-11T11:28:12Z</time>
      </trkpt>
      <trkpt lat="42.70649" lon="1.63584">
        <ele>1743.01</ele>
        <time>2016-09-11T11:28:39Z</time>
      </trkpt>
      <trkpt lat="42.70654" lon="1.63585">
        <ele>1747.33</ele>
        <time>2016-09-11T11:29:08Z</time>
      </trkpt>
      <trkpt lat="42.70656" lon="1.63586">
        <ele>1744.93</ele>
        <time>2016-09-11T11:29:46Z</time>
      </trkpt>
      <trkpt lat="42.70658" lon="1.63596">
        <ele>1747.33</ele>
        <time>2016-09-11T11:30:21Z</time>
      </trkpt>
      <trkpt lat="42.7067" lon="1.63593">
        <ele>1749.74</ele>
        <time>2016-09-11T11:30:45Z</time>
      </trkpt>
      <trkpt lat="42.70685" lon="1.63585">
        <ele>1752.62</ele>
        <time>2016-09-11T11:31:19Z</time>
      </trkpt>
      <trkpt lat="42.70689" lon="1.63601">
        <ele>1754.54</ele>
        <time>2016-09-11T11:31:44Z</time>
      </trkpt>
      <trkpt lat="42.70689" lon="1.63599">
        <ele>1754.06</ele>
        <time>2016-09-11T11:32:13Z</time>
      </trkpt>
      <trkpt lat="42.70689" lon="1.63621">
        <ele>1755.5</ele>
        <time>2016-09-11T11:32:46Z</time>
      </trkpt>
      <trkpt lat="42.70696" lon="1.6364">
        <ele>1757.91</ele>
        <time>2016-09-11T11:33:16Z</time>
      </trkpt>
      <trkpt lat="42.70698" lon="1.63635">
        <ele>1757.91</ele>
        <time>2016-09-11T11:33:55Z</time>
      </trkpt>
      <trkpt lat="42.70696" lon="1.6364">
        <ele>1758.87</ele>
        <time>2016-09-11T11:34:27Z</time>
      </trkpt>
      <trkpt lat="42.70698" lon="1.63643">
        <ele>1759.35</ele>
        <time>2016-09-11T11:35:09Z</time>
      </trkpt>
      <trkpt lat="42.70704" lon="1.63649">
        <ele>1761.27</ele>
        <time>2016-09-11T11:35:36Z</time>
      </trkpt>
      <trkpt lat="42.70705" lon="1.63647">
        <ele>1761.27</ele>
        <time>2016-09-11T11:35:56Z</time>
      </trkpt>
      <trkpt lat="42.70709" lon="1.63651">
        <ele>1762.71</ele>
        <time>2016-09-11T11:36:20Z</time>
      </trkpt>
      <trkpt lat="42.70723" lon="1.6366">
        <ele>1767.52</ele>
        <time>2016-09-11T11:36:54Z</time>
      </trkpt>
      <trkpt lat="42.70734" lon="1.63668">
        <ele>1771.37</ele>
        <time>2016-09-11T11:37:29Z</time>
      </trkpt>
      <trkpt lat="42.70741" lon="1.63677">
        <ele>1774.73</ele>
        <time>2016-09-11T11:38:07Z</time>
      </trkpt>
      <trkpt lat="42.70741" lon="1.63677">
        <ele>1774.73</ele>
        <time>2016-09-11T11:38:08Z</time>
      </trkpt>
      <trkpt lat="42.70747" lon="1.63688">
        <ele>1776.17</ele>
        <time>2016-09-11T11:38:31Z</time>
      </trkpt>
      <trkpt lat="42.70756" lon="1.63714">
        <ele>1779.54</ele>
        <time>2016-09-11T11:39:07Z</time>
      </trkpt>
      <trkpt lat="42.70762" lon="1.63726">
        <ele>1782.9</ele>
        <time>2016-09-11T11:39:28Z</time>
      </trkpt>
      <trkpt lat="42.70775" lon="1.63745">
        <ele>1787.23</ele>
        <time>2016-09-11T11:40:12Z</time>
      </trkpt>
      <trkpt lat="42.70787" lon="1.63767">
        <ele>1790.11</ele>
        <time>2016-09-11T11:40:50Z</time>
      </trkpt>
      <trkpt lat="42.70784" lon="1.6378">
        <ele>1789.15</ele>
        <time>2016-09-11T11:41:10Z</time>
      </trkpt>
      <trkpt lat="42.70787" lon="1.63776">
        <ele>1789.15</ele>
        <time>2016-09-11T11:41:26Z</time>
      </trkpt>
      <trkpt lat="42.70793" lon="1.63769">
        <ele>1789.63</ele>
        <time>2016-09-11T11:41:54Z</time>
      </trkpt>
      <trkpt lat="42.70788" lon="1.63771">
        <ele>1789.63</ele>
        <time>2016-09-11T11:42:45Z</time>
      </trkpt>
      <trkpt lat="42.70787" lon="1.63771">
        <ele>1789.63</ele>
        <time>2016-09-11T11:43:41Z</time>
      </trkpt>
      <trkpt lat="42.70786" lon="1.63769">
        <ele>1790.59</ele>
        <time>2016-09-11T11:44:43Z</time>
      </trkpt>
      <trkpt lat="42.70793" lon="1.63757">
        <ele>1790.11</ele>
        <time>2016-09-11T11:45:07Z</time>
      </trkpt>
      <trkpt lat="42.70797" lon="1.63741">
        <ele>1792.52</ele>
        <time>2016-09-11T11:45:30Z</time>
      </trkpt>
      <trkpt lat="42.70795" lon="1.63743">
        <ele>1792.52</ele>
        <time>2016-09-11T11:45:46Z</time>
      </trkpt>
      <trkpt lat="42.708" lon="1.63734">
        <ele>1793.48</ele>
        <time>2016-09-11T11:46:14Z</time>
      </trkpt>
      <trkpt lat="42.70807" lon="1.63711">
        <ele>1797.32</ele>
        <time>2016-09-11T11:46:42Z</time>
      </trkpt>
      <trkpt lat="42.70815" lon="1.63696">
        <ele>1800.69</ele>
        <time>2016-09-11T11:47:08Z</time>
      </trkpt>
      <trkpt lat="42.7083" lon="1.63679">
        <ele>1805.49</ele>
        <time>2016-09-11T11:47:43Z</time>
      </trkpt>
      <trkpt lat="42.70834" lon="1.63675">
        <ele>1807.42</ele>
        <time>2016-09-11T11:48:10Z</time>
      </trkpt>
      <trkpt lat="42.70844" lon="1.63666">
        <ele>1810.78</ele>
        <time>2016-09-11T11:48:56Z</time>
      </trkpt>
      <trkpt lat="42.70857" lon="1.63661">
        <ele>1813.18</ele>
        <time>2016-09-11T11:49:18Z</time>
      </trkpt>
      <trkpt lat="42.70857" lon="1.63661">
        <ele>1812.7</ele>
        <time>2016-09-11T11:49:26Z</time>
      </trkpt>
      <trkpt lat="42.70866" lon="1.63651">
        <ele>1815.11</ele>
        <time>2016-09-11T11:49:48Z</time>
      </trkpt>
      <trkpt lat="42.70878" lon="1.63641">
        <ele>1819.91</ele>
        <time>2016-09-11T11:50:13Z</time>
      </trkpt>
      <trkpt lat="42.70892" lon="1.63632">
        <ele>1823.28</ele>
        <time>2016-09-11T11:50:40Z</time>
      </trkpt>
      <trkpt lat="42.7091" lon="1.63634">
        <ele>1826.64</ele>
        <time>2016-09-11T11:51:12Z</time>
      </trkpt>
      <trkpt lat="42.70916" lon="1.63635">
        <ele>1826.64</ele>
        <time>2016-09-11T11:51:52Z</time>
      </trkpt>
      <trkpt lat="42.70913" lon="1.63633">
        <ele>1826.64</ele>
        <time>2016-09-11T11:52:55Z</time>
      </trkpt>
      <trkpt lat="42.70921" lon="1.63641">
        <ele>1828.56</ele>
        <time>2016-09-11T11:53:27Z</time>
      </trkpt>
      <trkpt lat="42.70936" lon="1.63659">
        <ele>1830.01</ele>
        <time>2016-09-11T11:53:51Z</time>
      </trkpt>
      <trkpt lat="42.70953" lon="1.63674">
        <ele>1830.97</ele>
        <time>2016-09-11T11:54:38Z</time>
      </trkpt>
      <trkpt lat="42.70967" lon="1.63684">
        <ele>1831.45</ele>
        <time>2016-09-11T11:55:02Z</time>
      </trkpt>
      <trkpt lat="42.71001" lon="1.63699">
        <ele>1831.93</ele>
        <time>2016-09-11T11:55:59Z</time>
      </trkpt>
      <trkpt lat="42.71017" lon="1.6371">
        <ele>1832.89</ele>
        <time>2016-09-11T11:56:27Z</time>
      </trkpt>
      <trkpt lat="42.71027" lon="1.63727">
        <ele>1832.41</ele>
        <time>2016-09-11T11:56:47Z</time>
      </trkpt>
      <trkpt lat="42.71033" lon="1.63731">
        <ele>1831.93</ele>
        <time>2016-09-11T11:56:54Z</time>
      </trkpt>
      <trkpt lat="42.71064" lon="1.63733">
        <ele>1832.41</ele>
        <time>2016-09-11T11:57:24Z</time>
      </trkpt>
      <trkpt lat="42.7109" lon="1.6374">
        <ele>1830.97</ele>
        <time>2016-09-11T11:57:59Z</time>
      </trkpt>
      <trkpt lat="42.71092" lon="1.63747">
        <ele>1830.97</ele>
        <time>2016-09-11T11:58:13Z</time>
      </trkpt>
      <trkpt lat="42.71099" lon="1.63774">
        <ele>1831.45</ele>
        <time>2016-09-11T11:58:33Z</time>
      </trkpt>
      <trkpt lat="42.71105" lon="1.63793">
        <ele>1831.45</ele>
        <time>2016-09-11T11:58:48Z</time>
      </trkpt>
      <trkpt lat="42.71129" lon="1.63865">
        <ele>1831.93</ele>
        <time>2016-09-11T11:59:47Z</time>
      </trkpt>
      <trkpt lat="42.71132" lon="1.63867">
        <ele>1831.45</ele>
        <time>2016-09-11T12:00:17Z</time>
      </trkpt>
      <trkpt lat="42.7113" lon="1.63866">
        <ele>1830.01</ele>
        <time>2016-09-11T12:01:11Z</time>
      </trkpt>
      <trkpt lat="42.71129" lon="1.63863">
        <ele>1830.49</ele>
        <time>2016-09-11T12:03:13Z</time>
      </trkpt>
      <trkpt lat="42.71129" lon="1.63865">
        <ele>1830.97</ele>
        <time>2016-09-11T12:05:47Z</time>
      </trkpt>
      <trkpt lat="42.71129" lon="1.63865">
        <ele>1830.97</ele>
        <time>2016-09-11T12:07:12Z</time>
      </trkpt>
      <trkpt lat="42.71126" lon="1.6386">
        <ele>1830.97</ele>
        <time>2016-09-11T12:07:49Z</time>
      </trkpt>
      <trkpt lat="42.71128" lon="1.63855">
        <ele>1830.49</ele>
        <time>2016-09-11T12:08:14Z</time>
      </trkpt>
      <trkpt lat="42.71129" lon="1.63854">
        <ele>1830.01</ele>
        <time>2016-09-11T12:08:16Z</time>
      </trkpt>
      <trkpt lat="42.71128" lon="1.63825">
        <ele>1828.56</ele>
        <time>2016-09-11T12:08:34Z</time>
      </trkpt>
      <trkpt lat="42.71127" lon="1.63805">
        <ele>1827.12</ele>
        <time>2016-09-11T12:08:52Z</time>
      </trkpt>
      <trkpt lat="42.71117" lon="1.63772">
        <ele>1828.56</ele>
        <time>2016-09-11T12:09:19Z</time>
      </trkpt>
      <trkpt lat="42.71123" lon="1.63751">
        <ele>1825.68</ele>
        <time>2016-09-11T12:09:43Z</time>
      </trkpt>
      <trkpt lat="42.71132" lon="1.63752">
        <ele>1825.2</ele>
        <time>2016-09-11T12:09:57Z</time>
      </trkpt>
      <trkpt lat="42.71137" lon="1.63756">
        <ele>1824.24</ele>
        <time>2016-09-11T12:10:09Z</time>
      </trkpt>
      <trkpt lat="42.7115" lon="1.63757">
        <ele>1821.35</ele>
        <time>2016-09-11T12:10:21Z</time>
      </trkpt>
      <trkpt lat="42.71161" lon="1.63751">
        <ele>1819.91</ele>
        <time>2016-09-11T12:10:34Z</time>
      </trkpt>
      <trkpt lat="42.71185" lon="1.63737">
        <ele>1818.47</ele>
        <time>2016-09-11T12:10:56Z</time>
      </trkpt>
      <trkpt lat="42.71205" lon="1.63717">
        <ele>1815.59</ele>
        <time>2016-09-11T12:11:19Z</time>
      </trkpt>
      <trkpt lat="42.71224" lon="1.63715">
        <ele>1814.63</ele>
        <time>2016-09-11T12:11:37Z</time>
      </trkpt>
      <trkpt lat="42.7124" lon="1.6372">
        <ele>1814.15</ele>
        <time>2016-09-11T12:11:52Z</time>
      </trkpt>
      <trkpt lat="42.71265" lon="1.63718">
        <ele>1812.22</ele>
        <time>2016-09-11T12:12:15Z</time>
      </trkpt>
      <trkpt lat="42.71291" lon="1.63723">
        <ele>1809.82</ele>
        <time>2016-09-11T12:12:59Z</time>
      </trkpt>
      <trkpt lat="42.7131" lon="1.63723">
        <ele>1808.86</ele>
        <time>2016-09-11T12:13:21Z</time>
      </trkpt>
      <trkpt lat="42.71345" lon="1.63724">
        <ele>1806.45</ele>
        <time>2016-09-11T12:13:56Z</time>
      </trkpt>
      <trkpt lat="42.71367" lon="1.63726">
        <ele>1804.05</ele>
        <time>2016-09-11T12:14:26Z</time>
      </trkpt>
      <trkpt lat="42.71394" lon="1.63735">
        <ele>1799.73</ele>
        <time>2016-09-11T12:14:55Z</time>
      </trkpt>
      <trkpt lat="42.71396" lon="1.63735">
        <ele>1800.21</ele>
        <time>2016-09-11T12:14:58Z</time>
      </trkpt>
      <trkpt lat="42.71412" lon="1.63746">
        <ele>1796.84</ele>
        <time>2016-09-11T12:15:16Z</time>
      </trkpt>
      <trkpt lat="42.71429" lon="1.63758">
        <ele>1793</ele>
        <time>2016-09-11T12:15:38Z</time>
      </trkpt>
      <trkpt lat="42.71448" lon="1.6377">
        <ele>1789.63</ele>
        <time>2016-09-11T12:15:59Z</time>
      </trkpt>
      <trkpt lat="42.71456" lon="1.6378">
        <ele>1786.27</ele>
        <time>2016-09-11T12:16:14Z</time>
      </trkpt>
      <trkpt lat="42.71471" lon="1.6379">
        <ele>1784.34</ele>
        <time>2016-09-11T12:16:30Z</time>
      </trkpt>
      <trkpt lat="42.71482" lon="1.63796">
        <ele>1782.9</ele>
        <time>2016-09-11T12:16:42Z</time>
      </trkpt>
      <trkpt lat="42.71484" lon="1.63798">
        <ele>1782.9</ele>
        <time>2016-09-11T12:16:51Z</time>
      </trkpt>
      <trkpt lat="42.71485" lon="1.63795">
        <ele>1782.42</ele>
        <time>2016-09-11T12:17:28Z</time>
      </trkpt>
      <trkpt lat="42.71493" lon="1.63801">
        <ele>1781.94</ele>
        <time>2016-09-11T12:18:29Z</time>
      </trkpt>
      <trkpt lat="42.71508" lon="1.63817">
        <ele>1780.02</ele>
        <time>2016-09-11T12:18:47Z</time>
      </trkpt>
      <trkpt lat="42.71519" lon="1.63831">
        <ele>1781.46</ele>
        <time>2016-09-11T12:19:01Z</time>
      </trkpt>
      <trkpt lat="42.71529" lon="1.63854">
        <ele>1778.58</ele>
        <time>2016-09-11T12:19:20Z</time>
      </trkpt>
      <trkpt lat="42.71547" lon="1.63872">
        <ele>1777.61</ele>
        <time>2016-09-11T12:19:41Z</time>
      </trkpt>
      <trkpt lat="42.7156" lon="1.63891">
        <ele>1774.73</ele>
        <time>2016-09-11T12:19:58Z</time>
      </trkpt>
      <trkpt lat="42.71574" lon="1.63898">
        <ele>1768</ele>
        <time>2016-09-11T12:20:11Z</time>
      </trkpt>
      <trkpt lat="42.71575" lon="1.63898">
        <ele>1776.65</ele>
        <time>2016-09-11T12:20:12Z</time>
      </trkpt>
      <trkpt lat="42.71576" lon="1.63898">
        <ele>1771.85</ele>
        <time>2016-09-11T12:20:13Z</time>
      </trkpt>
      <trkpt lat="42.71595" lon="1.6391">
        <ele>1768.48</ele>
        <time>2016-09-11T12:20:34Z</time>
      </trkpt>
      <trkpt lat="42.71603" lon="1.6392">
        <ele>1765.6</ele>
        <time>2016-09-11T12:20:54Z</time>
      </trkpt>
      <trkpt lat="42.71617" lon="1.63933">
        <ele>1761.75</ele>
        <time>2016-09-11T12:21:10Z</time>
      </trkpt>
      <trkpt lat="42.71635" lon="1.6395">
        <ele>1757.43</ele>
        <time>2016-09-11T12:21:31Z</time>
      </trkpt>
      <trkpt lat="42.71652" lon="1.63971">
        <ele>1752.14</ele>
        <time>2016-09-11T12:21:54Z</time>
      </trkpt>
      <trkpt lat="42.71665" lon="1.63979">
        <ele>1749.74</ele>
        <time>2016-09-11T12:22:20Z</time>
      </trkpt>
      <trkpt lat="42.71661" lon="1.63977">
        <ele>1750.22</ele>
        <time>2016-09-11T12:22:56Z</time>
      </trkpt>
      <trkpt lat="42.71665" lon="1.63977">
        <ele>1749.74</ele>
        <time>2016-09-11T12:23:38Z</time>
      </trkpt>
      <trkpt lat="42.71663" lon="1.63981">
        <ele>1748.78</ele>
        <time>2016-09-11T12:24:33Z</time>
      </trkpt>
      <trkpt lat="42.71671" lon="1.6401">
        <ele>1745.41</ele>
        <time>2016-09-11T12:24:53Z</time>
      </trkpt>
      <trkpt lat="42.71672" lon="1.64047">
        <ele>1743.49</ele>
        <time>2016-09-11T12:25:16Z</time>
      </trkpt>
      <trkpt lat="42.7167" lon="1.64067">
        <ele>1743.01</ele>
        <time>2016-09-11T12:25:28Z</time>
      </trkpt>
      <trkpt lat="42.71676" lon="1.64091">
        <ele>1742.53</ele>
        <time>2016-09-11T12:25:46Z</time>
      </trkpt>
      <trkpt lat="42.71672" lon="1.64121">
        <ele>1742.53</ele>
        <time>2016-09-11T12:26:04Z</time>
      </trkpt>
      <trkpt lat="42.71678" lon="1.64155">
        <ele>1740.12</ele>
        <time>2016-09-11T12:26:34Z</time>
      </trkpt>
      <trkpt lat="42.71673" lon="1.64178">
        <ele>1738.2</ele>
        <time>2016-09-11T12:26:51Z</time>
      </trkpt>
      <trkpt lat="42.71668" lon="1.64202">
        <ele>1736.76</ele>
        <time>2016-09-11T12:27:08Z</time>
      </trkpt>
      <trkpt lat="42.71664" lon="1.64232">
        <ele>1734.36</ele>
        <time>2016-09-11T12:27:30Z</time>
      </trkpt>
      <trkpt lat="42.71663" lon="1.64233">
        <ele>1734.36</ele>
        <time>2016-09-11T12:27:31Z</time>
      </trkpt>
      <trkpt lat="42.71661" lon="1.64238">
        <ele>1733.88</ele>
        <time>2016-09-11T12:27:35Z</time>
      </trkpt>
      <trkpt lat="42.71661" lon="1.64253">
        <ele>1732.43</ele>
        <time>2016-09-11T12:27:52Z</time>
      </trkpt>
      <trkpt lat="42.71661" lon="1.64256">
        <ele>1732.43</ele>
        <time>2016-09-11T12:28:30Z</time>
      </trkpt>
      <trkpt lat="42.7166" lon="1.64257">
        <ele>1732.43</ele>
        <time>2016-09-11T12:29:14Z</time>
      </trkpt>
      <trkpt lat="42.71663" lon="1.64266">
        <ele>1731.95</ele>
        <time>2016-09-11T12:29:50Z</time>
      </trkpt>
      <trkpt lat="42.71672" lon="1.64287">
        <ele>1730.03</ele>
        <time>2016-09-11T12:30:07Z</time>
      </trkpt>
      <trkpt lat="42.71684" lon="1.64306">
        <ele>1728.59</ele>
        <time>2016-09-11T12:30:26Z</time>
      </trkpt>
      <trkpt lat="42.71688" lon="1.64311">
        <ele>1728.59</ele>
        <time>2016-09-11T12:30:33Z</time>
      </trkpt>
      <trkpt lat="42.71698" lon="1.64344">
        <ele>1725.7</ele>
        <time>2016-09-11T12:31:11Z</time>
      </trkpt>
      <trkpt lat="42.71699" lon="1.64362">
        <ele>1725.7</ele>
        <time>2016-09-11T12:31:22Z</time>
      </trkpt>
      <trkpt lat="42.71706" lon="1.64387">
        <ele>1722.82</ele>
        <time>2016-09-11T12:31:41Z</time>
      </trkpt>
      <trkpt lat="42.71707" lon="1.64432">
        <ele>1718.97</ele>
        <time>2016-09-11T12:32:16Z</time>
      </trkpt>
      <trkpt lat="42.71716" lon="1.64478">
        <ele>1714.65</ele>
        <time>2016-09-11T12:32:51Z</time>
      </trkpt>
      <trkpt lat="42.7172" lon="1.64514">
        <ele>1711.28</ele>
        <time>2016-09-11T12:33:17Z</time>
      </trkpt>
      <trkpt lat="42.71725" lon="1.64553">
        <ele>1706.96</ele>
        <time>2016-09-11T12:33:45Z</time>
      </trkpt>
      <trkpt lat="42.7173" lon="1.64586">
        <ele>1702.15</ele>
        <time>2016-09-11T12:34:08Z</time>
      </trkpt>
      <trkpt lat="42.7174" lon="1.64631">
        <ele>1696.86</ele>
        <time>2016-09-11T12:34:38Z</time>
      </trkpt>
      <trkpt lat="42.71751" lon="1.64675">
        <ele>1692.54</ele>
        <time>2016-09-11T12:35:12Z</time>
      </trkpt>
      <trkpt lat="42.71752" lon="1.64675">
        <ele>1692.54</ele>
        <time>2016-09-11T12:35:28Z</time>
      </trkpt>
      <trkpt lat="42.71751" lon="1.64675">
        <ele>1692.54</ele>
        <time>2016-09-11T12:36:00Z</time>
      </trkpt>
      <trkpt lat="42.71753" lon="1.64674">
        <ele>1692.06</ele>
        <time>2016-09-11T12:37:15Z</time>
      </trkpt>
      <trkpt lat="42.71751" lon="1.64672">
        <ele>1692.54</ele>
        <time>2016-09-11T12:38:05Z</time>
      </trkpt>
      <trkpt lat="42.7175" lon="1.64671">
        <ele>1692.54</ele>
        <time>2016-09-11T12:39:21Z</time>
      </trkpt>
      <trkpt lat="42.71751" lon="1.64672">
        <ele>1692.54</ele>
        <time>2016-09-11T12:40:54Z</time>
      </trkpt>
      <trkpt lat="42.71751" lon="1.64669">
        <ele>1692.54</ele>
        <time>2016-09-11T12:42:00Z</time>
      </trkpt>
      <trkpt lat="42.71747" lon="1.64672">
        <ele>1692.06</ele>
        <time>2016-09-11T12:42:17Z</time>
      </trkpt>
      <trkpt lat="42.7172" lon="1.64682">
        <ele>1691.1</ele>
        <time>2016-09-11T12:42:42Z</time>
      </trkpt>
      <trkpt lat="42.71706" lon="1.64683">
        <ele>1691.1</ele>
        <time>2016-09-11T12:42:54Z</time>
      </trkpt>
      <trkpt lat="42.71657" lon="1.64685">
        <ele>1689.65</ele>
        <time>2016-09-11T12:43:41Z</time>
      </trkpt>
      <trkpt lat="42.71621" lon="1.64691">
        <ele>1684.85</ele>
        <time>2016-09-11T12:44:17Z</time>
      </trkpt>
      <trkpt lat="42.7161" lon="1.64693">
        <ele>1682.93</ele>
        <time>2016-09-11T12:44:29Z</time>
      </trkpt>
      <trkpt lat="42.71585" lon="1.64686">
        <ele>1680.04</ele>
        <time>2016-09-11T12:44:54Z</time>
      </trkpt>
      <trkpt lat="42.71562" lon="1.64678">
        <ele>1675.72</ele>
        <time>2016-09-11T12:45:18Z</time>
      </trkpt>
      <trkpt lat="42.71548" lon="1.64675">
        <ele>1672.83</ele>
        <time>2016-09-11T12:45:31Z</time>
      </trkpt>
      <trkpt lat="42.71533" lon="1.64664">
        <ele>1667.54</ele>
        <time>2016-09-11T12:45:48Z</time>
      </trkpt>
      <trkpt lat="42.71519" lon="1.64658">
        <ele>1662.74</ele>
        <time>2016-09-11T12:46:08Z</time>
      </trkpt>
      <trkpt lat="42.71514" lon="1.64647">
        <ele>1659.37</ele>
        <time>2016-09-11T12:46:19Z</time>
      </trkpt>
      <trkpt lat="42.71512" lon="1.64646">
        <ele>1659.37</ele>
        <time>2016-09-11T12:46:21Z</time>
      </trkpt>
      <trkpt lat="42.71504" lon="1.64638">
        <ele>1655.53</ele>
        <time>2016-09-11T12:46:32Z</time>
      </trkpt>
      <trkpt lat="42.71487" lon="1.64613">
        <ele>1649.28</ele>
        <time>2016-09-11T12:46:57Z</time>
      </trkpt>
      <trkpt lat="42.71486" lon="1.64598">
        <ele>1646.88</ele>
        <time>2016-09-11T12:47:09Z</time>
      </trkpt>
      <trkpt lat="42.71474" lon="1.64588">
        <ele>1642.07</ele>
        <time>2016-09-11T12:47:26Z</time>
      </trkpt>
      <trkpt lat="42.71467" lon="1.64579">
        <ele>1638.22</ele>
        <time>2016-09-11T12:47:36Z</time>
      </trkpt>
      <trkpt lat="42.71456" lon="1.64571">
        <ele>1634.86</ele>
        <time>2016-09-11T12:47:47Z</time>
      </trkpt>
      <trkpt lat="42.71448" lon="1.6457">
        <ele>1631.49</ele>
        <time>2016-09-11T12:47:57Z</time>
      </trkpt>
      <trkpt lat="42.71432" lon="1.64551">
        <ele>1626.21</ele>
        <time>2016-09-11T12:48:18Z</time>
      </trkpt>
      <trkpt lat="42.71433" lon="1.64548">
        <ele>1622.84</ele>
        <time>2016-09-11T12:48:53Z</time>
      </trkpt>
      <trkpt lat="42.71433" lon="1.6455">
        <ele>1622.84</ele>
        <time>2016-09-11T12:49:37Z</time>
      </trkpt>
      <trkpt lat="42.71422" lon="1.64545">
        <ele>1622.36</ele>
        <time>2016-09-11T12:51:00Z</time>
      </trkpt>
      <trkpt lat="42.71405" lon="1.64531">
        <ele>1617.07</ele>
        <time>2016-09-11T12:51:23Z</time>
      </trkpt>
      <trkpt lat="42.71398" lon="1.64526">
        <ele>1613.23</ele>
        <time>2016-09-11T12:51:33Z</time>
      </trkpt>
      <trkpt lat="42.7139" lon="1.64527">
        <ele>1613.23</ele>
        <time>2016-09-11T12:51:42Z</time>
      </trkpt>
      <trkpt lat="42.71365" lon="1.64518">
        <ele>1614.19</ele>
        <time>2016-09-11T12:52:02Z</time>
      </trkpt>
      <trkpt lat="42.71347" lon="1.64535">
        <ele>1611.79</ele>
        <time>2016-09-11T12:52:34Z</time>
      </trkpt>
      <trkpt lat="42.71343" lon="1.64547">
        <ele>1610.83</ele>
        <time>2016-09-11T12:53:13Z</time>
      </trkpt>
      <trkpt lat="42.71341" lon="1.64553">
        <ele>1609.38</ele>
        <time>2016-09-11T12:53:22Z</time>
      </trkpt>
      <trkpt lat="42.71331" lon="1.64566">
        <ele>1607.46</ele>
        <time>2016-09-11T12:53:39Z</time>
      </trkpt>
      <trkpt lat="42.71329" lon="1.64581">
        <ele>1606.02</ele>
        <time>2016-09-11T12:53:51Z</time>
      </trkpt>
      <trkpt lat="42.71318" lon="1.64615">
        <ele>1600.73</ele>
        <time>2016-09-11T12:54:15Z</time>
      </trkpt>
      <trkpt lat="42.71318" lon="1.64625">
        <ele>1601.21</ele>
        <time>2016-09-11T12:54:26Z</time>
      </trkpt>
      <trkpt lat="42.71332" lon="1.6463">
        <ele>1599.77</ele>
        <time>2016-09-11T12:54:43Z</time>
      </trkpt>
      <trkpt lat="42.71334" lon="1.64633">
        <ele>1601.21</ele>
        <time>2016-09-11T12:55:20Z</time>
      </trkpt>
      <trkpt lat="42.71329" lon="1.64641">
        <ele>1600.73</ele>
        <time>2016-09-11T12:56:07Z</time>
      </trkpt>
      <trkpt lat="42.71326" lon="1.64637">
        <ele>1600.73</ele>
        <time>2016-09-11T12:56:44Z</time>
      </trkpt>
      <trkpt lat="42.71323" lon="1.6464">
        <ele>1597.37</ele>
        <time>2016-09-11T12:56:57Z</time>
      </trkpt>
      <trkpt lat="42.7132" lon="1.64652">
        <ele>1593.04</ele>
        <time>2016-09-11T12:57:10Z</time>
      </trkpt>
      <trkpt lat="42.71323" lon="1.64669">
        <ele>1588.72</ele>
        <time>2016-09-11T12:57:30Z</time>
      </trkpt>
      <trkpt lat="42.7132" lon="1.64676">
        <ele>1585.35</ele>
        <time>2016-09-11T12:57:38Z</time>
      </trkpt>
      <trkpt lat="42.71318" lon="1.64681">
        <ele>1581.51</ele>
        <time>2016-09-11T12:57:48Z</time>
      </trkpt>
      <trkpt lat="42.71319" lon="1.64679">
        <ele>1580.54</ele>
        <time>2016-09-11T12:58:06Z</time>
      </trkpt>
      <trkpt lat="42.71322" lon="1.64703">
        <ele>1578.62</ele>
        <time>2016-09-11T12:58:19Z</time>
      </trkpt>
      <trkpt lat="42.71318" lon="1.64711">
        <ele>1572.37</ele>
        <time>2016-09-11T12:58:30Z</time>
      </trkpt>
      <trkpt lat="42.71321" lon="1.64716">
        <ele>1569.01</ele>
        <time>2016-09-11T12:58:37Z</time>
      </trkpt>
      <trkpt lat="42.71309" lon="1.64714">
        <ele>1564.2</ele>
        <time>2016-09-11T12:58:50Z</time>
      </trkpt>
      <trkpt lat="42.71308" lon="1.64714">
        <ele>1564.2</ele>
        <time>2016-09-11T12:58:51Z</time>
      </trkpt>
      <trkpt lat="42.71303" lon="1.64724">
        <ele>1558.92</ele>
        <time>2016-09-11T12:59:02Z</time>
      </trkpt>
      <trkpt lat="42.71296" lon="1.64729">
        <ele>1555.07</ele>
        <time>2016-09-11T12:59:11Z</time>
      </trkpt>
      <trkpt lat="42.7129" lon="1.64733">
        <ele>1551.71</ele>
        <time>2016-09-11T12:59:19Z</time>
      </trkpt>
      <trkpt lat="42.7128" lon="1.64739">
        <ele>1546.9</ele>
        <time>2016-09-11T12:59:30Z</time>
      </trkpt>
      <trkpt lat="42.71274" lon="1.64749">
        <ele>1541.13</ele>
        <time>2016-09-11T12:59:42Z</time>
      </trkpt>
      <trkpt lat="42.71271" lon="1.64765">
        <ele>1534.88</ele>
        <time>2016-09-11T13:00:01Z</time>
      </trkpt>
      <trkpt lat="42.71274" lon="1.64778">
        <ele>1531.52</ele>
        <time>2016-09-11T13:00:09Z</time>
      </trkpt>
      <trkpt lat="42.7127" lon="1.64779">
        <ele>1528.15</ele>
        <time>2016-09-11T13:00:18Z</time>
      </trkpt>
      <trkpt lat="42.71264" lon="1.64786">
        <ele>1523.83</ele>
        <time>2016-09-11T13:00:30Z</time>
      </trkpt>
      <trkpt lat="42.71261" lon="1.64805">
        <ele>1518.06</ele>
        <time>2016-09-11T13:00:42Z</time>
      </trkpt>
      <trkpt lat="42.71261" lon="1.64807">
        <ele>1518.06</ele>
        <time>2016-09-11T13:00:43Z</time>
      </trkpt>
      <trkpt lat="42.71261" lon="1.64817">
        <ele>1514.69</ele>
        <time>2016-09-11T13:00:51Z</time>
      </trkpt>
      <trkpt lat="42.71259" lon="1.64828">
        <ele>1511.33</ele>
        <time>2016-09-11T13:01:01Z</time>
      </trkpt>
      <trkpt lat="42.71259" lon="1.64835">
        <ele>1507.97</ele>
        <time>2016-09-11T13:01:11Z</time>
      </trkpt>
      <trkpt lat="42.7126" lon="1.64847">
        <ele>1504.6</ele>
        <time>2016-09-11T13:01:20Z</time>
      </trkpt>
      <trkpt lat="42.71259" lon="1.64853">
        <ele>1500.76</ele>
        <time>2016-09-11T13:01:30Z</time>
      </trkpt>
      <trkpt lat="42.71259" lon="1.64862">
        <ele>1497.39</ele>
        <time>2016-09-11T13:01:40Z</time>
      </trkpt>
      <trkpt lat="42.71259" lon="1.64864">
        <ele>1497.39</ele>
        <time>2016-09-11T13:01:41Z</time>
      </trkpt>
      <trkpt lat="42.71263" lon="1.64875">
        <ele>1494.03</ele>
        <time>2016-09-11T13:01:53Z</time>
      </trkpt>
      <trkpt lat="42.71263" lon="1.64877">
        <ele>1491.14</ele>
        <time>2016-09-11T13:02:13Z</time>
      </trkpt>
      <trkpt lat="42.71265" lon="1.64875">
        <ele>1491.14</ele>
        <time>2016-09-11T13:02:37Z</time>
      </trkpt>
      <trkpt lat="42.7127" lon="1.64872">
        <ele>1491.14</ele>
        <time>2016-09-11T13:03:17Z</time>
      </trkpt>
      <trkpt lat="42.71267" lon="1.6488">
        <ele>1491.14</ele>
        <time>2016-09-11T13:04:03Z</time>
      </trkpt>
      <trkpt lat="42.71274" lon="1.6488">
        <ele>1491.62</ele>
        <time>2016-09-11T13:04:44Z</time>
      </trkpt>
      <trkpt lat="42.71288" lon="1.64871">
        <ele>1491.14</ele>
        <time>2016-09-11T13:05:34Z</time>
      </trkpt>
      <trkpt lat="42.71278" lon="1.6488">
        <ele>1490.66</ele>
        <time>2016-09-11T13:06:17Z</time>
      </trkpt>
      <trkpt lat="42.71278" lon="1.6488">
        <ele>1490.66</ele>
        <time>2016-09-11T13:07:05Z</time>
      </trkpt>
      <trkpt lat="42.71267" lon="1.649">
        <ele>1489.22</ele>
        <time>2016-09-11T13:07:37Z</time>
      </trkpt>
      <trkpt lat="42.71264" lon="1.64891">
        <ele>1486.82</ele>
        <time>2016-09-11T13:08:00Z</time>
      </trkpt>
      <trkpt lat="42.71263" lon="1.64885">
        <ele>1486.34</ele>
        <time>2016-09-11T13:08:19Z</time>
      </trkpt>
      <trkpt lat="42.71247" lon="1.64901">
        <ele>1481.53</ele>
        <time>2016-09-11T13:08:30Z</time>
      </trkpt>
      <trkpt lat="42.71241" lon="1.64942">
        <ele>1476.72</ele>
        <time>2016-09-11T13:08:55Z</time>
      </trkpt>
      <trkpt lat="42.71237" lon="1.64969">
        <ele>1473.36</ele>
        <time>2016-09-11T13:09:22Z</time>
      </trkpt>
      <trkpt lat="42.71235" lon="1.64983">
        <ele>1472.4</ele>
        <time>2016-09-11T13:09:49Z</time>
      </trkpt>
      <trkpt lat="42.7123" lon="1.65005">
        <ele>1472.88</ele>
        <time>2016-09-11T13:10:17Z</time>
      </trkpt>
      <trkpt lat="42.71239" lon="1.65039">
        <ele>1469.99</ele>
        <time>2016-09-11T13:10:44Z</time>
      </trkpt>
      <trkpt lat="42.71245" lon="1.65054">
        <ele>1467.59</ele>
        <time>2016-09-11T13:11:12Z</time>
      </trkpt>
      <trkpt lat="42.71249" lon="1.65073">
        <ele>1463.26</ele>
        <time>2016-09-11T13:11:40Z</time>
      </trkpt>
      <trkpt lat="42.71243" lon="1.65092">
        <ele>1458.46</ele>
        <time>2016-09-11T13:12:05Z</time>
      </trkpt>
      <trkpt lat="42.71229" lon="1.65125">
        <ele>1454.61</ele>
        <time>2016-09-11T13:12:42Z</time>
      </trkpt>
      <trkpt lat="42.7121" lon="1.65157">
        <ele>1450.77</ele>
        <time>2016-09-11T13:13:25Z</time>
      </trkpt>
      <trkpt lat="42.71205" lon="1.65173">
        <ele>1447.4</ele>
        <time>2016-09-11T13:13:38Z</time>
      </trkpt>
      <trkpt lat="42.7119" lon="1.652">
        <ele>1442.6</ele>
        <time>2016-09-11T13:13:58Z</time>
      </trkpt>
      <trkpt lat="42.71168" lon="1.65201">
        <ele>1441.15</ele>
        <time>2016-09-11T13:14:24Z</time>
      </trkpt>
      <trkpt lat="42.71163" lon="1.65207">
        <ele>1440.67</ele>
        <time>2016-09-11T13:14:49Z</time>
      </trkpt>
      <trkpt lat="42.71155" lon="1.65216">
        <ele>1439.23</ele>
        <time>2016-09-11T13:15:21Z</time>
      </trkpt>
      <trkpt lat="42.7115" lon="1.65221">
        <ele>1435.87</ele>
        <time>2016-09-11T13:15:29Z</time>
      </trkpt>
      <trkpt lat="42.71135" lon="1.65246">
        <ele>1432.5</ele>
        <time>2016-09-11T13:15:53Z</time>
      </trkpt>
      <trkpt lat="42.71133" lon="1.65248">
        <ele>1432.5</ele>
        <time>2016-09-11T13:15:59Z</time>
      </trkpt>
      <trkpt lat="42.71125" lon="1.65262">
        <ele>1432.98</ele>
        <time>2016-09-11T13:16:13Z</time>
      </trkpt>
      <trkpt lat="42.71129" lon="1.65275">
        <ele>1433.94</ele>
        <time>2016-09-11T13:16:57Z</time>
      </trkpt>
      <trkpt lat="42.71121" lon="1.65289">
        <ele>1432.02</ele>
        <time>2016-09-11T13:17:29Z</time>
      </trkpt>
      <trkpt lat="42.71118" lon="1.65305">
        <ele>1432.02</ele>
        <time>2016-09-11T13:17:41Z</time>
      </trkpt>
      <trkpt lat="42.71115" lon="1.65328">
        <ele>1431.54</ele>
        <time>2016-09-11T13:17:54Z</time>
      </trkpt>
      <trkpt lat="42.71127" lon="1.65357">
        <ele>1430.1</ele>
        <time>2016-09-11T13:18:19Z</time>
      </trkpt>
      <trkpt lat="42.71126" lon="1.65371">
        <ele>1425.77</ele>
        <time>2016-09-11T13:18:45Z</time>
      </trkpt>
      <trkpt lat="42.71127" lon="1.65396">
        <ele>1421.45</ele>
        <time>2016-09-11T13:19:13Z</time>
      </trkpt>
      <trkpt lat="42.71123" lon="1.65405">
        <ele>1421.93</ele>
        <time>2016-09-11T13:19:26Z</time>
      </trkpt>
      <trkpt lat="42.71127" lon="1.65432">
        <ele>1420</ele>
        <time>2016-09-11T13:19:49Z</time>
      </trkpt>
      <trkpt lat="42.71123" lon="1.65452">
        <ele>1416.64</ele>
        <time>2016-09-11T13:20:17Z</time>
      </trkpt>
      <trkpt lat="42.71118" lon="1.65465">
        <ele>1414.24</ele>
        <time>2016-09-11T13:20:41Z</time>
      </trkpt>
      <trkpt lat="42.71113" lon="1.65499">
        <ele>1408.95</ele>
        <time>2016-09-11T13:21:04Z</time>
      </trkpt>
      <trkpt lat="42.71106" lon="1.65506">
        <ele>1407.03</ele>
        <time>2016-09-11T13:21:20Z</time>
      </trkpt>
      <trkpt lat="42.71093" lon="1.65519">
        <ele>1403.18</ele>
        <time>2016-09-11T13:21:42Z</time>
      </trkpt>
      <trkpt lat="42.71084" lon="1.65542">
        <ele>1399.82</ele>
        <time>2016-09-11T13:22:04Z</time>
      </trkpt>
      <trkpt lat="42.71086" lon="1.65564">
        <ele>1395.49</ele>
        <time>2016-09-11T13:22:28Z</time>
      </trkpt>
      <trkpt lat="42.71087" lon="1.65561">
        <ele>1395.49</ele>
        <time>2016-09-11T13:22:48Z</time>
      </trkpt>
      <trkpt lat="42.71083" lon="1.65576">
        <ele>1392.61</ele>
        <time>2016-09-11T13:23:24Z</time>
      </trkpt>
      <trkpt lat="42.7109" lon="1.65587">
        <ele>1389.24</ele>
        <time>2016-09-11T13:23:44Z</time>
      </trkpt>
      <trkpt lat="42.71099" lon="1.65587">
        <ele>1388.28</ele>
        <time>2016-09-11T13:24:19Z</time>
      </trkpt>
      <trkpt lat="42.7109" lon="1.65598">
        <ele>1386.36</ele>
        <time>2016-09-11T13:24:39Z</time>
      </trkpt>
      <trkpt lat="42.71095" lon="1.65605">
        <ele>1382.99</ele>
        <time>2016-09-11T13:24:51Z</time>
      </trkpt>
      <trkpt lat="42.71095" lon="1.65606">
        <ele>1382.99</ele>
        <time>2016-09-11T13:24:52Z</time>
      </trkpt>
      <trkpt lat="42.71104" lon="1.65613">
        <ele>1377.71</ele>
        <time>2016-09-11T13:25:14Z</time>
      </trkpt>
      <trkpt lat="42.7111" lon="1.65605">
        <ele>1377.71</ele>
        <time>2016-09-11T13:25:33Z</time>
      </trkpt>
      <trkpt lat="42.71111" lon="1.65601">
        <ele>1377.23</ele>
        <time>2016-09-11T13:26:14Z</time>
      </trkpt>
      <trkpt lat="42.71111" lon="1.65604">
        <ele>1375.3</ele>
        <time>2016-09-11T13:26:57Z</time>
      </trkpt>
      <trkpt lat="42.71095" lon="1.65623">
        <ele>1369.54</ele>
        <time>2016-09-11T13:27:22Z</time>
      </trkpt>
      <trkpt lat="42.71085" lon="1.65645">
        <ele>1368.09</ele>
        <time>2016-09-11T13:27:50Z</time>
      </trkpt>
      <trkpt lat="42.71083" lon="1.6565">
        <ele>1364.73</ele>
        <time>2016-09-11T13:28:05Z</time>
      </trkpt>
      <trkpt lat="42.71083" lon="1.65672">
        <ele>1359.44</ele>
        <time>2016-09-11T13:28:31Z</time>
      </trkpt>
      <trkpt lat="42.71081" lon="1.65697">
        <ele>1356.08</ele>
        <time>2016-09-11T13:29:01Z</time>
      </trkpt>
      <trkpt lat="42.71079" lon="1.65706">
        <ele>1356.08</ele>
        <time>2016-09-11T13:29:17Z</time>
      </trkpt>
      <trkpt lat="42.71081" lon="1.65727">
        <ele>1351.75</ele>
        <time>2016-09-11T13:29:52Z</time>
      </trkpt>
      <trkpt lat="42.71083" lon="1.65753">
        <ele>1348.87</ele>
        <time>2016-09-11T13:30:23Z</time>
      </trkpt>
      <trkpt lat="42.71083" lon="1.65767">
        <ele>1345.98</ele>
        <time>2016-09-11T13:30:50Z</time>
      </trkpt>
      <trkpt lat="42.71089" lon="1.65772">
        <ele>1344.06</ele>
        <time>2016-09-11T13:31:32Z</time>
      </trkpt>
      <trkpt lat="42.71089" lon="1.65779">
        <ele>1344.06</ele>
        <time>2016-09-11T13:32:36Z</time>
      </trkpt>
      <trkpt lat="42.71087" lon="1.65804">
        <ele>1342.14</ele>
        <time>2016-09-11T13:32:54Z</time>
      </trkpt>
      <trkpt lat="42.71086" lon="1.65828">
        <ele>1337.81</ele>
        <time>2016-09-11T13:33:18Z</time>
      </trkpt>
      <trkpt lat="42.71077" lon="1.65835">
        <ele>1332.52</ele>
        <time>2016-09-11T13:33:34Z</time>
      </trkpt>
      <trkpt lat="42.71068" lon="1.65843">
        <ele>1327.72</ele>
        <time>2016-09-11T13:33:47Z</time>
      </trkpt>
      <trkpt lat="42.71068" lon="1.65844">
        <ele>1327.72</ele>
        <time>2016-09-11T13:33:48Z</time>
      </trkpt>
      <trkpt lat="42.71074" lon="1.65858">
        <ele>1322.43</ele>
        <time>2016-09-11T13:34:00Z</time>
      </trkpt>
      <trkpt lat="42.71074" lon="1.65865">
        <ele>1318.59</ele>
        <time>2016-09-11T13:34:07Z</time>
      </trkpt>
      <trkpt lat="42.71075" lon="1.65866">
        <ele>1318.59</ele>
        <time>2016-09-11T13:34:08Z</time>
      </trkpt>
      <trkpt lat="42.71075" lon="1.65873">
        <ele>1316.66</ele>
        <time>2016-09-11T13:34:13Z</time>
      </trkpt>
      <trkpt lat="42.71076" lon="1.65883">
        <ele>1313.3</ele>
        <time>2016-09-11T13:34:20Z</time>
      </trkpt>
      <trkpt lat="42.71079" lon="1.65894">
        <ele>1309.45</ele>
        <time>2016-09-11T13:34:29Z</time>
      </trkpt>
      <trkpt lat="42.7108" lon="1.659">
        <ele>1305.13</ele>
        <time>2016-09-11T13:34:37Z</time>
      </trkpt>
      <trkpt lat="42.71091" lon="1.65912">
        <ele>1301.76</ele>
        <time>2016-09-11T13:34:46Z</time>
      </trkpt>
      <trkpt lat="42.71093" lon="1.65922">
        <ele>1295.51</ele>
        <time>2016-09-11T13:34:57Z</time>
      </trkpt>
      <trkpt lat="42.71094" lon="1.65923">
        <ele>1295.51</ele>
        <time>2016-09-11T13:34:58Z</time>
      </trkpt>
      <trkpt lat="42.71104" lon="1.65934">
        <ele>1290.23</ele>
        <time>2016-09-11T13:35:15Z</time>
      </trkpt>
      <trkpt lat="42.71111" lon="1.65927">
        <ele>1290.71</ele>
        <time>2016-09-11T13:35:35Z</time>
      </trkpt>
      <trkpt lat="42.71105" lon="1.65917">
        <ele>1290.23</ele>
        <time>2016-09-11T13:36:32Z</time>
      </trkpt>
      <trkpt lat="42.71115" lon="1.65914">
        <ele>1290.23</ele>
        <time>2016-09-11T13:36:53Z</time>
      </trkpt>
      <trkpt lat="42.71119" lon="1.65934">
        <ele>1289.75</ele>
        <time>2016-09-11T13:37:37Z</time>
      </trkpt>
      <trkpt lat="42.71118" lon="1.65929">
        <ele>1289.75</ele>
        <time>2016-09-11T13:38:18Z</time>
      </trkpt>
      <trkpt lat="42.7112" lon="1.65933">
        <ele>1289.27</ele>
        <time>2016-09-11T13:39:01Z</time>
      </trkpt>
      <trkpt lat="42.71113" lon="1.65941">
        <ele>1289.75</ele>
        <time>2016-09-11T13:39:50Z</time>
      </trkpt>
      <trkpt lat="42.71121" lon="1.65929">
        <ele>1289.27</ele>
        <time>2016-09-11T13:40:16Z</time>
      </trkpt>
      <trkpt lat="42.71122" lon="1.65926">
        <ele>1289.27</ele>
        <time>2016-09-11T13:40:58Z</time>
      </trkpt>
      <trkpt lat="42.71112" lon="1.65946">
        <ele>1288.3</ele>
        <time>2016-09-11T13:41:41Z</time>
      </trkpt>
      <trkpt lat="42.71126" lon="1.65946">
        <ele>1286.38</ele>
        <time>2016-09-11T13:42:03Z</time>
      </trkpt>
      <trkpt lat="42.7112" lon="1.65947">
        <ele>1282.06</ele>
        <time>2016-09-11T13:42:18Z</time>
      </trkpt>
      <trkpt lat="42.71121" lon="1.65954">
        <ele>1280.13</ele>
        <time>2016-09-11T13:42:44Z</time>
      </trkpt>
      <trkpt lat="42.71126" lon="1.65953">
        <ele>1275.81</ele>
        <time>2016-09-11T13:43:05Z</time>
      </trkpt>
      <trkpt lat="42.71137" lon="1.65968">
        <ele>1272.44</ele>
        <time>2016-09-11T13:43:33Z</time>
      </trkpt>
      <trkpt lat="42.71136" lon="1.65969">
        <ele>1270.04</ele>
        <time>2016-09-11T13:43:48Z</time>
      </trkpt>
      <trkpt lat="42.71145" lon="1.65972">
        <ele>1266.67</ele>
        <time>2016-09-11T13:44:01Z</time>
      </trkpt>
      <trkpt lat="42.71144" lon="1.65971">
        <ele>1267.16</ele>
        <time>2016-09-11T13:44:02Z</time>
      </trkpt>
      <trkpt lat="42.71139" lon="1.65975">
        <ele>1263.31</ele>
        <time>2016-09-11T13:44:15Z</time>
      </trkpt>
      <trkpt lat="42.71142" lon="1.65986">
        <ele>1260.91</ele>
        <time>2016-09-11T13:44:27Z</time>
      </trkpt>
      <trkpt lat="42.71162" lon="1.65985">
        <ele>1257.54</ele>
        <time>2016-09-11T13:44:56Z</time>
      </trkpt>
      <trkpt lat="42.71183" lon="1.65988">
        <ele>1254.18</ele>
        <time>2016-09-11T13:45:20Z</time>
      </trkpt>
      <trkpt lat="42.71196" lon="1.65989">
        <ele>1249.85</ele>
        <time>2016-09-11T13:45:42Z</time>
      </trkpt>
      <trkpt lat="42.7121" lon="1.65996">
        <ele>1244.56</ele>
        <time>2016-09-11T13:46:06Z</time>
      </trkpt>
      <trkpt lat="42.71209" lon="1.65993">
        <ele>1244.56</ele>
        <time>2016-09-11T13:46:21Z</time>
      </trkpt>
      <trkpt lat="42.71205" lon="1.65998">
        <ele>1239.28</ele>
        <time>2016-09-11T13:46:51Z</time>
      </trkpt>
      <trkpt lat="42.71187" lon="1.66011">
        <ele>1233.99</ele>
        <time>2016-09-11T13:47:17Z</time>
      </trkpt>
      <trkpt lat="42.71177" lon="1.66026">
        <ele>1231.11</ele>
        <time>2016-09-11T13:47:44Z</time>
      </trkpt>
      <trkpt lat="42.71176" lon="1.66033">
        <ele>1227.74</ele>
        <time>2016-09-11T13:47:57Z</time>
      </trkpt>
      <trkpt lat="42.71176" lon="1.66049">
        <ele>1226.3</ele>
        <time>2016-09-11T13:48:36Z</time>
      </trkpt>
      <trkpt lat="42.71188" lon="1.66045">
        <ele>1226.3</ele>
        <time>2016-09-11T13:48:58Z</time>
      </trkpt>
      <trkpt lat="42.71196" lon="1.66058">
        <ele>1226.3</ele>
        <time>2016-09-11T13:49:46Z</time>
      </trkpt>
      <trkpt lat="42.71192" lon="1.66063">
        <ele>1222.93</ele>
        <time>2016-09-11T13:50:15Z</time>
      </trkpt>
      <trkpt lat="42.7119" lon="1.66061">
        <ele>1219.09</ele>
        <time>2016-09-11T13:50:43Z</time>
      </trkpt>
      <trkpt lat="42.7119" lon="1.66073">
        <ele>1214.76</ele>
        <time>2016-09-11T13:51:14Z</time>
      </trkpt>
      <trkpt lat="42.71199" lon="1.66078">
        <ele>1212.36</ele>
        <time>2016-09-11T13:51:31Z</time>
      </trkpt>
      <trkpt lat="42.71196" lon="1.66072">
        <ele>1209.96</ele>
        <time>2016-09-11T13:51:47Z</time>
      </trkpt>
      <trkpt lat="42.71203" lon="1.66083">
        <ele>1205.63</ele>
        <time>2016-09-11T13:52:24Z</time>
      </trkpt>
      <trkpt lat="42.71198" lon="1.66079">
        <ele>1206.59</ele>
        <time>2016-09-11T13:52:54Z</time>
      </trkpt>
      <trkpt lat="42.71203" lon="1.66079">
        <ele>1205.15</ele>
        <time>2016-09-11T13:53:29Z</time>
      </trkpt>
      <trkpt lat="42.71192" lon="1.66097">
        <ele>1202.27</ele>
        <time>2016-09-11T13:53:44Z</time>
      </trkpt>
      <trkpt lat="42.71199" lon="1.66099">
        <ele>1200.82</ele>
        <time>2016-09-11T13:53:56Z</time>
      </trkpt>
      <trkpt lat="42.71208" lon="1.66105">
        <ele>1196.5</ele>
        <time>2016-09-11T13:54:23Z</time>
      </trkpt>
      <trkpt lat="42.71198" lon="1.66116">
        <ele>1191.21</ele>
        <time>2016-09-11T13:55:07Z</time>
      </trkpt>
      <trkpt lat="42.71204" lon="1.6613">
        <ele>1189.77</ele>
        <time>2016-09-11T13:55:35Z</time>
      </trkpt>
      <trkpt lat="42.71203" lon="1.66134">
        <ele>1184.96</ele>
        <time>2016-09-11T13:56:01Z</time>
      </trkpt>
      <trkpt lat="42.71207" lon="1.66157">
        <ele>1180.16</ele>
        <time>2016-09-11T13:56:31Z</time>
      </trkpt>
      <trkpt lat="42.71216" lon="1.6616">
        <ele>1176.31</ele>
        <time>2016-09-11T13:56:57Z</time>
      </trkpt>
      <trkpt lat="42.71212" lon="1.6615">
        <ele>1175.83</ele>
        <time>2016-09-11T13:57:46Z</time>
      </trkpt>
      <trkpt lat="42.71212" lon="1.66154">
        <ele>1176.31</ele>
        <time>2016-09-11T13:58:33Z</time>
      </trkpt>
      <trkpt lat="42.71222" lon="1.66151">
        <ele>1175.83</ele>
        <time>2016-09-11T13:59:17Z</time>
      </trkpt>
      <trkpt lat="42.71213" lon="1.6616">
        <ele>1175.83</ele>
        <time>2016-09-11T14:00:02Z</time>
      </trkpt>
      <trkpt lat="42.71233" lon="1.66156">
        <ele>1175.35</ele>
        <time>2016-09-11T14:00:47Z</time>
      </trkpt>
      <trkpt lat="42.71231" lon="1.66158">
        <ele>1175.35</ele>
        <time>2016-09-11T14:01:18Z</time>
      </trkpt>
      <trkpt lat="42.71222" lon="1.66168">
        <ele>1174.39</ele>
        <time>2016-09-11T14:01:56Z</time>
      </trkpt>
      <trkpt lat="42.71219" lon="1.66174">
        <ele>1172.47</ele>
        <time>2016-09-11T14:02:11Z</time>
      </trkpt>
      <trkpt lat="42.7123" lon="1.66184">
        <ele>1169.1</ele>
        <time>2016-09-11T14:02:21Z</time>
      </trkpt>
      <trkpt lat="42.71234" lon="1.66187">
        <ele>1165.26</ele>
        <time>2016-09-11T14:02:31Z</time>
      </trkpt>
      <trkpt lat="42.71238" lon="1.66196">
        <ele>1161.89</ele>
        <time>2016-09-11T14:02:44Z</time>
      </trkpt>
      <trkpt lat="42.71237" lon="1.66216">
        <ele>1157.08</ele>
        <time>2016-09-11T14:03:04Z</time>
      </trkpt>
      <trkpt lat="42.71245" lon="1.66236">
        <ele>1150.84</ele>
        <time>2016-09-11T14:03:24Z</time>
      </trkpt>
      <trkpt lat="42.71251" lon="1.66249">
        <ele>1147.47</ele>
        <time>2016-09-11T14:03:33Z</time>
      </trkpt>
      <trkpt lat="42.71259" lon="1.66261">
        <ele>1143.63</ele>
        <time>2016-09-11T14:03:50Z</time>
      </trkpt>
      <trkpt lat="42.71264" lon="1.66269">
        <ele>1139.78</ele>
        <time>2016-09-11T14:04:00Z</time>
      </trkpt>
      <trkpt lat="42.71271" lon="1.663">
        <ele>1135.94</ele>
        <time>2016-09-11T14:04:30Z</time>
      </trkpt>
      <trkpt lat="42.71266" lon="1.66326">
        <ele>1130.65</ele>
        <time>2016-09-11T14:04:55Z</time>
      </trkpt>
      <trkpt lat="42.71265" lon="1.66349">
        <ele>1124.88</ele>
        <time>2016-09-11T14:05:17Z</time>
      </trkpt>
      <trkpt lat="42.71278" lon="1.6635">
        <ele>1120.55</ele>
        <time>2016-09-11T14:05:38Z</time>
      </trkpt>
      <trkpt lat="42.71284" lon="1.66349">
        <ele>1117.19</ele>
        <time>2016-09-11T14:05:50Z</time>
      </trkpt>
      <trkpt lat="42.71285" lon="1.66359">
        <ele>1112.38</ele>
        <time>2016-09-11T14:06:14Z</time>
      </trkpt>
      <trkpt lat="42.71285" lon="1.6637">
        <ele>1108.54</ele>
        <time>2016-09-11T14:06:48Z</time>
      </trkpt>
      <trkpt lat="42.71285" lon="1.66383">
        <ele>1102.77</ele>
        <time>2016-09-11T14:07:31Z</time>
      </trkpt>
      <trkpt lat="42.71297" lon="1.66374">
        <ele>1102.29</ele>
        <time>2016-09-11T14:08:11Z</time>
      </trkpt>
      <trkpt lat="42.71299" lon="1.66366">
        <ele>1101.81</ele>
        <time>2016-09-11T14:09:02Z</time>
      </trkpt>
      <trkpt lat="42.71291" lon="1.6637">
        <ele>1100.37</ele>
        <time>2016-09-11T14:09:55Z</time>
      </trkpt>
      <trkpt lat="42.71285" lon="1.66378">
        <ele>1100.85</ele>
        <time>2016-09-11T14:10:43Z</time>
      </trkpt>
      <trkpt lat="42.71282" lon="1.66392">
        <ele>1096.04</ele>
        <time>2016-09-11T14:11:12Z</time>
      </trkpt>
      <trkpt lat="42.71295" lon="1.66403">
        <ele>1093.64</ele>
        <time>2016-09-11T14:11:33Z</time>
      </trkpt>
      <trkpt lat="42.71301" lon="1.66402">
        <ele>1089.79</ele>
        <time>2016-09-11T14:11:57Z</time>
      </trkpt>
      <trkpt lat="42.71295" lon="1.66416">
        <ele>1084.5</ele>
        <time>2016-09-11T14:12:24Z</time>
      </trkpt>
      <trkpt lat="42.71295" lon="1.66422">
        <ele>1081.14</ele>
        <time>2016-09-11T14:12:35Z</time>
      </trkpt>
      <trkpt lat="42.71289" lon="1.66439">
        <ele>1077.29</ele>
        <time>2016-09-11T14:13:00Z</time>
      </trkpt>
      <trkpt lat="42.71303" lon="1.66448">
        <ele>1075.85</ele>
        <time>2016-09-11T14:13:31Z</time>
      </trkpt>
      <trkpt lat="42.71309" lon="1.66447">
        <ele>1074.41</ele>
        <time>2016-09-11T14:13:59Z</time>
      </trkpt>
      <trkpt lat="42.71309" lon="1.66446">
        <ele>1073.93</ele>
        <time>2016-09-11T14:14:34Z</time>
      </trkpt>
      <trkpt lat="42.71312" lon="1.66449">
        <ele>1073.93</ele>
        <time>2016-09-11T14:15:18Z</time>
      </trkpt>
      <trkpt lat="42.71319" lon="1.66443">
        <ele>1075.85</ele>
        <time>2016-09-11T14:15:38Z</time>
      </trkpt>
      <trkpt lat="42.71332" lon="1.66437">
        <ele>1075.85</ele>
        <time>2016-09-11T14:16:05Z</time>
      </trkpt>
      <trkpt lat="42.71354" lon="1.66412">
        <ele>1079.22</ele>
        <time>2016-09-11T14:16:33Z</time>
      </trkpt>
      <trkpt lat="42.71369" lon="1.66391">
        <ele>1079.7</ele>
        <time>2016-09-11T14:16:58Z</time>
      </trkpt>
      <trkpt lat="42.71383" lon="1.66409">
        <ele>1075.37</ele>
        <time>2016-09-11T14:17:27Z</time>
      </trkpt>
      <trkpt lat="42.71403" lon="1.66415">
        <ele>1071.53</ele>
        <time>2016-09-11T14:17:52Z</time>
      </trkpt>
      <trkpt lat="42.71409" lon="1.66412">
        <ele>1072.01</ele>
        <time>2016-09-11T14:18:08Z</time>
      </trkpt>
      <trkpt lat="42.71417" lon="1.66428">
        <ele>1067.68</ele>
        <time>2016-09-11T14:18:35Z</time>
      </trkpt>
      <trkpt lat="42.71415" lon="1.66438">
        <ele>1066.24</ele>
        <time>2016-09-11T14:18:45Z</time>
      </trkpt>
      <trkpt lat="42.71414" lon="1.66477">
        <ele>1062.39</ele>
        <time>2016-09-11T14:19:12Z</time>
      </trkpt>
      <trkpt lat="42.71423" lon="1.66515">
        <ele>1059.03</ele>
        <time>2016-09-11T14:19:37Z</time>
      </trkpt>
      <trkpt lat="42.71438" lon="1.66536">
        <ele>1056.15</ele>
        <time>2016-09-11T14:20:02Z</time>
      </trkpt>
      <trkpt lat="42.71448" lon="1.66558">
        <ele>1054.22</ele>
        <time>2016-09-11T14:20:39Z</time>
      </trkpt>
      <trkpt lat="42.71442" lon="1.66553">
        <ele>1053.74</ele>
        <time>2016-09-11T14:21:12Z</time>
      </trkpt>
      <trkpt lat="42.71443" lon="1.6655">
        <ele>1053.26</ele>
        <time>2016-09-11T14:21:43Z</time>
      </trkpt>
      <trkpt lat="42.71433" lon="1.66544">
        <ele>1053.26</ele>
        <time>2016-09-11T14:22:17Z</time>
      </trkpt>
      <trkpt lat="42.7143" lon="1.66545">
        <ele>1054.7</ele>
        <time>2016-09-11T14:22:54Z</time>
      </trkpt>
      <trkpt lat="42.71431" lon="1.66544">
        <ele>1051.82</ele>
        <time>2016-09-11T14:23:05Z</time>
      </trkpt>
    </trkseg>
  </trk>
</gpx>